<?xml version="1.0" encoding="UTF-8" standalone="no" ?>
<gpx xmlns="http://www.topografix.com/GPX/1/1" xmlns:xsi="http://www.w3.org/2001/XMLSchema-instance" xsi:schemaLocation="http://www.topografix.com/GPX/1/1 http://www.topografix.com/GPX/1/1/gpx.xsd" version="1.1" creator="VisuGPX - https://www.visugpx.com">
  <metadata>
    <name>VTT vauville 25-6-11 18 km</name>
    <desc><![CDATA[sympa dans la lande de vauville au depart du camp maneyrol avant d\'aller surfer !]]></desc>
  </metadata>
  <trk>
    <name><![CDATA[2011-06-25T14:04:19Z]]></name>
    <trkseg>
      <trkpt lat="49.62834" lon="-1.8352">
        <ele>128</ele>
        <time>2011-06-25T14:04:19Z</time>
      </trkpt>
      <trkpt lat="49.62832" lon="-1.8352">
        <ele>129</ele>
        <time>2011-06-25T14:04:24Z</time>
      </trkpt>
      <trkpt lat="49.62816" lon="-1.8352">
        <ele>129</ele>
        <time>2011-06-25T14:04:31Z</time>
      </trkpt>
      <trkpt lat="49.6281" lon="-1.83521">
        <ele>129</ele>
        <time>2011-06-25T14:04:34Z</time>
      </trkpt>
      <trkpt lat="49.62811" lon="-1.83516">
        <ele>129</ele>
        <time>2011-06-25T14:04:38Z</time>
      </trkpt>
      <trkpt lat="49.62823" lon="-1.8352">
        <ele>129</ele>
        <time>2011-06-25T14:04:43Z</time>
      </trkpt>
      <trkpt lat="49.62834" lon="-1.8352">
        <ele>128</ele>
        <time>2011-06-25T14:04:48Z</time>
      </trkpt>
      <trkpt lat="49.62834" lon="-1.8352">
        <ele>128</ele>
        <time>2011-06-25T14:04:58Z</time>
      </trkpt>
      <trkpt lat="49.62833" lon="-1.83518">
        <ele>129</ele>
        <time>2011-06-25T14:05:46Z</time>
      </trkpt>
      <trkpt lat="49.6283" lon="-1.8352">
        <ele>129</ele>
        <time>2011-06-25T14:05:52Z</time>
      </trkpt>
      <trkpt lat="49.62827" lon="-1.83521">
        <ele>129</ele>
        <time>2011-06-25T14:06:00Z</time>
      </trkpt>
      <trkpt lat="49.62811" lon="-1.8352">
        <ele>129</ele>
        <time>2011-06-25T14:06:06Z</time>
      </trkpt>
      <trkpt lat="49.62805" lon="-1.83521">
        <ele>129</ele>
        <time>2011-06-25T14:06:10Z</time>
      </trkpt>
      <trkpt lat="49.62805" lon="-1.83521">
        <ele>129</ele>
        <time>2011-06-25T14:06:18Z</time>
      </trkpt>
      <trkpt lat="49.62798" lon="-1.83525">
        <ele>129</ele>
        <time>2011-06-25T14:06:22Z</time>
      </trkpt>
      <trkpt lat="49.62784" lon="-1.83538">
        <ele>128</ele>
        <time>2011-06-25T14:06:27Z</time>
      </trkpt>
      <trkpt lat="49.62771" lon="-1.83548">
        <ele>128</ele>
        <time>2011-06-25T14:06:31Z</time>
      </trkpt>
      <trkpt lat="49.62764" lon="-1.83547">
        <ele>128</ele>
        <time>2011-06-25T14:06:36Z</time>
      </trkpt>
      <trkpt lat="49.62751" lon="-1.83531">
        <ele>128</ele>
        <time>2011-06-25T14:06:46Z</time>
      </trkpt>
      <trkpt lat="49.62735" lon="-1.83512">
        <ele>127</ele>
        <time>2011-06-25T14:06:51Z</time>
      </trkpt>
      <trkpt lat="49.62725" lon="-1.835">
        <ele>127</ele>
        <time>2011-06-25T14:06:55Z</time>
      </trkpt>
      <trkpt lat="49.62723" lon="-1.83499">
        <ele>128</ele>
        <time>2011-06-25T14:07:02Z</time>
      </trkpt>
      <trkpt lat="49.62714" lon="-1.83485">
        <ele>127</ele>
        <time>2011-06-25T14:07:07Z</time>
      </trkpt>
      <trkpt lat="49.62696" lon="-1.83454">
        <ele>127</ele>
        <time>2011-06-25T14:07:14Z</time>
      </trkpt>
      <trkpt lat="49.62676" lon="-1.83421">
        <ele>127</ele>
        <time>2011-06-25T14:07:21Z</time>
      </trkpt>
      <trkpt lat="49.62663" lon="-1.83399">
        <ele>127</ele>
        <time>2011-06-25T14:07:26Z</time>
      </trkpt>
      <trkpt lat="49.62648" lon="-1.83381">
        <ele>127</ele>
        <time>2011-06-25T14:07:32Z</time>
      </trkpt>
      <trkpt lat="49.62642" lon="-1.83375">
        <ele>127</ele>
        <time>2011-06-25T14:07:36Z</time>
      </trkpt>
      <trkpt lat="49.62631" lon="-1.83362">
        <ele>128</ele>
        <time>2011-06-25T14:07:43Z</time>
      </trkpt>
      <trkpt lat="49.62625" lon="-1.83352">
        <ele>128</ele>
        <time>2011-06-25T14:07:48Z</time>
      </trkpt>
      <trkpt lat="49.62613" lon="-1.83336">
        <ele>128</ele>
        <time>2011-06-25T14:07:56Z</time>
      </trkpt>
      <trkpt lat="49.626" lon="-1.83317">
        <ele>130</ele>
        <time>2011-06-25T14:08:01Z</time>
      </trkpt>
      <trkpt lat="49.62592" lon="-1.83309">
        <ele>130</ele>
        <time>2011-06-25T14:08:05Z</time>
      </trkpt>
      <trkpt lat="49.62592" lon="-1.83309">
        <ele>130</ele>
        <time>2011-06-25T14:08:06Z</time>
      </trkpt>
      <trkpt lat="49.62587" lon="-1.83293">
        <ele>130</ele>
        <time>2011-06-25T14:08:11Z</time>
      </trkpt>
      <trkpt lat="49.62585" lon="-1.83289">
        <ele>130</ele>
        <time>2011-06-25T14:08:12Z</time>
      </trkpt>
      <trkpt lat="49.62573" lon="-1.83252">
        <ele>130</ele>
        <time>2011-06-25T14:08:20Z</time>
      </trkpt>
      <trkpt lat="49.62568" lon="-1.83234">
        <ele>132</ele>
        <time>2011-06-25T14:08:25Z</time>
      </trkpt>
      <trkpt lat="49.62558" lon="-1.83201">
        <ele>132</ele>
        <time>2011-06-25T14:08:31Z</time>
      </trkpt>
      <trkpt lat="49.62542" lon="-1.83152">
        <ele>134</ele>
        <time>2011-06-25T14:08:39Z</time>
      </trkpt>
      <trkpt lat="49.62532" lon="-1.8312">
        <ele>134</ele>
        <time>2011-06-25T14:08:44Z</time>
      </trkpt>
      <trkpt lat="49.62526" lon="-1.83097">
        <ele>134</ele>
        <time>2011-06-25T14:08:48Z</time>
      </trkpt>
      <trkpt lat="49.62504" lon="-1.83028">
        <ele>136</ele>
        <time>2011-06-25T14:08:58Z</time>
      </trkpt>
      <trkpt lat="49.62482" lon="-1.82985">
        <ele>137</ele>
        <time>2011-06-25T14:09:05Z</time>
      </trkpt>
      <trkpt lat="49.62464" lon="-1.82962">
        <ele>137</ele>
        <time>2011-06-25T14:09:11Z</time>
      </trkpt>
      <trkpt lat="49.62466" lon="-1.82943">
        <ele>137</ele>
        <time>2011-06-25T14:09:15Z</time>
      </trkpt>
      <trkpt lat="49.62478" lon="-1.82893">
        <ele>138</ele>
        <time>2011-06-25T14:09:22Z</time>
      </trkpt>
      <trkpt lat="49.62475" lon="-1.82856">
        <ele>138</ele>
        <time>2011-06-25T14:09:27Z</time>
      </trkpt>
      <trkpt lat="49.62473" lon="-1.82826">
        <ele>139</ele>
        <time>2011-06-25T14:09:31Z</time>
      </trkpt>
      <trkpt lat="49.62475" lon="-1.82819">
        <ele>139</ele>
        <time>2011-06-25T14:09:32Z</time>
      </trkpt>
      <trkpt lat="49.62499" lon="-1.82737">
        <ele>139</ele>
        <time>2011-06-25T14:09:43Z</time>
      </trkpt>
      <trkpt lat="49.6251" lon="-1.82698">
        <ele>138</ele>
        <time>2011-06-25T14:09:49Z</time>
      </trkpt>
      <trkpt lat="49.62518" lon="-1.82671">
        <ele>138</ele>
        <time>2011-06-25T14:09:54Z</time>
      </trkpt>
      <trkpt lat="49.62524" lon="-1.82653">
        <ele>138</ele>
        <time>2011-06-25T14:09:58Z</time>
      </trkpt>
      <trkpt lat="49.62537" lon="-1.82652">
        <ele>138</ele>
        <time>2011-06-25T14:10:02Z</time>
      </trkpt>
      <trkpt lat="49.62561" lon="-1.82662">
        <ele>137</ele>
        <time>2011-06-25T14:10:08Z</time>
      </trkpt>
      <trkpt lat="49.62585" lon="-1.82672">
        <ele>136</ele>
        <time>2011-06-25T14:10:14Z</time>
      </trkpt>
      <trkpt lat="49.62614" lon="-1.82677">
        <ele>135</ele>
        <time>2011-06-25T14:10:20Z</time>
      </trkpt>
      <trkpt lat="49.62638" lon="-1.8268">
        <ele>134</ele>
        <time>2011-06-25T14:10:24Z</time>
      </trkpt>
      <trkpt lat="49.62664" lon="-1.82662">
        <ele>133</ele>
        <time>2011-06-25T14:10:28Z</time>
      </trkpt>
      <trkpt lat="49.62673" lon="-1.82646">
        <ele>133</ele>
        <time>2011-06-25T14:10:30Z</time>
      </trkpt>
      <trkpt lat="49.62691" lon="-1.82612">
        <ele>134</ele>
        <time>2011-06-25T14:10:35Z</time>
      </trkpt>
      <trkpt lat="49.62706" lon="-1.82584">
        <ele>135</ele>
        <time>2011-06-25T14:10:40Z</time>
      </trkpt>
      <trkpt lat="49.62728" lon="-1.82519">
        <ele>137</ele>
        <time>2011-06-25T14:10:50Z</time>
      </trkpt>
      <trkpt lat="49.62743" lon="-1.82476">
        <ele>139</ele>
        <time>2011-06-25T14:10:57Z</time>
      </trkpt>
      <trkpt lat="49.62767" lon="-1.82418">
        <ele>140</ele>
        <time>2011-06-25T14:11:06Z</time>
      </trkpt>
      <trkpt lat="49.62778" lon="-1.82393">
        <ele>141</ele>
        <time>2011-06-25T14:11:10Z</time>
      </trkpt>
      <trkpt lat="49.62792" lon="-1.82355">
        <ele>141</ele>
        <time>2011-06-25T14:11:17Z</time>
      </trkpt>
      <trkpt lat="49.62803" lon="-1.82323">
        <ele>142</ele>
        <time>2011-06-25T14:11:23Z</time>
      </trkpt>
      <trkpt lat="49.62813" lon="-1.82288">
        <ele>142</ele>
        <time>2011-06-25T14:11:30Z</time>
      </trkpt>
      <trkpt lat="49.62817" lon="-1.82263">
        <ele>143</ele>
        <time>2011-06-25T14:11:35Z</time>
      </trkpt>
      <trkpt lat="49.62821" lon="-1.82228">
        <ele>143</ele>
        <time>2011-06-25T14:11:41Z</time>
      </trkpt>
      <trkpt lat="49.62827" lon="-1.82173">
        <ele>143</ele>
        <time>2011-06-25T14:11:49Z</time>
      </trkpt>
      <trkpt lat="49.62836" lon="-1.82112">
        <ele>145</ele>
        <time>2011-06-25T14:11:57Z</time>
      </trkpt>
      <trkpt lat="49.62854" lon="-1.82044">
        <ele>145</ele>
        <time>2011-06-25T14:12:06Z</time>
      </trkpt>
      <trkpt lat="49.62881" lon="-1.81972">
        <ele>145</ele>
        <time>2011-06-25T14:12:16Z</time>
      </trkpt>
      <trkpt lat="49.62907" lon="-1.81911">
        <ele>145</ele>
        <time>2011-06-25T14:12:25Z</time>
      </trkpt>
      <trkpt lat="49.62933" lon="-1.81849">
        <ele>145</ele>
        <time>2011-06-25T14:12:33Z</time>
      </trkpt>
      <trkpt lat="49.62955" lon="-1.81807">
        <ele>145</ele>
        <time>2011-06-25T14:12:39Z</time>
      </trkpt>
      <trkpt lat="49.6298" lon="-1.81763">
        <ele>144</ele>
        <time>2011-06-25T14:12:46Z</time>
      </trkpt>
      <trkpt lat="49.63013" lon="-1.81713">
        <ele>144</ele>
        <time>2011-06-25T14:12:54Z</time>
      </trkpt>
      <trkpt lat="49.63046" lon="-1.81662">
        <ele>144</ele>
        <time>2011-06-25T14:13:02Z</time>
      </trkpt>
      <trkpt lat="49.63056" lon="-1.81641">
        <ele>144</ele>
        <time>2011-06-25T14:13:05Z</time>
      </trkpt>
      <trkpt lat="49.63072" lon="-1.81625">
        <ele>144</ele>
        <time>2011-06-25T14:13:09Z</time>
      </trkpt>
      <trkpt lat="49.63085" lon="-1.81638">
        <ele>146</ele>
        <time>2011-06-25T14:13:12Z</time>
      </trkpt>
      <trkpt lat="49.63089" lon="-1.81644">
        <ele>145</ele>
        <time>2011-06-25T14:13:13Z</time>
      </trkpt>
      <trkpt lat="49.63097" lon="-1.81658">
        <ele>145</ele>
        <time>2011-06-25T14:13:15Z</time>
      </trkpt>
      <trkpt lat="49.63108" lon="-1.81679">
        <ele>143</ele>
        <time>2011-06-25T14:13:18Z</time>
      </trkpt>
      <trkpt lat="49.6313" lon="-1.81722">
        <ele>143</ele>
        <time>2011-06-25T14:13:24Z</time>
      </trkpt>
      <trkpt lat="49.63148" lon="-1.81754">
        <ele>142</ele>
        <time>2011-06-25T14:13:28Z</time>
      </trkpt>
      <trkpt lat="49.63159" lon="-1.81768">
        <ele>142</ele>
        <time>2011-06-25T14:13:30Z</time>
      </trkpt>
      <trkpt lat="49.63186" lon="-1.81788">
        <ele>139</ele>
        <time>2011-06-25T14:13:35Z</time>
      </trkpt>
      <trkpt lat="49.63211" lon="-1.81786">
        <ele>139</ele>
        <time>2011-06-25T14:13:39Z</time>
      </trkpt>
      <trkpt lat="49.63218" lon="-1.81785">
        <ele>138</ele>
        <time>2011-06-25T14:13:40Z</time>
      </trkpt>
      <trkpt lat="49.63231" lon="-1.81782">
        <ele>138</ele>
        <time>2011-06-25T14:13:42Z</time>
      </trkpt>
      <trkpt lat="49.63247" lon="-1.8178">
        <ele>138</ele>
        <time>2011-06-25T14:13:46Z</time>
      </trkpt>
      <trkpt lat="49.63253" lon="-1.81777">
        <ele>135</ele>
        <time>2011-06-25T14:13:50Z</time>
      </trkpt>
      <trkpt lat="49.63266" lon="-1.81774">
        <ele>135</ele>
        <time>2011-06-25T14:13:55Z</time>
      </trkpt>
      <trkpt lat="49.63284" lon="-1.81775">
        <ele>135</ele>
        <time>2011-06-25T14:14:00Z</time>
      </trkpt>
      <trkpt lat="49.63304" lon="-1.81784">
        <ele>134</ele>
        <time>2011-06-25T14:14:05Z</time>
      </trkpt>
      <trkpt lat="49.63306" lon="-1.81785">
        <ele>134</ele>
        <time>2011-06-25T14:14:09Z</time>
      </trkpt>
      <trkpt lat="49.63304" lon="-1.81785">
        <ele>134</ele>
        <time>2011-06-25T14:14:17Z</time>
      </trkpt>
      <trkpt lat="49.63303" lon="-1.81785">
        <ele>134</ele>
        <time>2011-06-25T14:14:27Z</time>
      </trkpt>
      <trkpt lat="49.63304" lon="-1.81785">
        <ele>134</ele>
        <time>2011-06-25T14:14:33Z</time>
      </trkpt>
      <trkpt lat="49.63304" lon="-1.81785">
        <ele>134</ele>
        <time>2011-06-25T14:14:43Z</time>
      </trkpt>
      <trkpt lat="49.63305" lon="-1.81786">
        <ele>134</ele>
        <time>2011-06-25T14:14:58Z</time>
      </trkpt>
      <trkpt lat="49.63307" lon="-1.81786">
        <ele>134</ele>
        <time>2011-06-25T14:15:05Z</time>
      </trkpt>
      <trkpt lat="49.63312" lon="-1.81784">
        <ele>134</ele>
        <time>2011-06-25T14:15:14Z</time>
      </trkpt>
      <trkpt lat="49.63313" lon="-1.81784">
        <ele>134</ele>
        <time>2011-06-25T14:15:20Z</time>
      </trkpt>
      <trkpt lat="49.63323" lon="-1.81795">
        <ele>133</ele>
        <time>2011-06-25T14:15:26Z</time>
      </trkpt>
      <trkpt lat="49.63325" lon="-1.81799">
        <ele>133</ele>
        <time>2011-06-25T14:15:27Z</time>
      </trkpt>
      <trkpt lat="49.63338" lon="-1.81814">
        <ele>129</ele>
        <time>2011-06-25T14:15:31Z</time>
      </trkpt>
      <trkpt lat="49.63352" lon="-1.81843">
        <ele>125</ele>
        <time>2011-06-25T14:15:35Z</time>
      </trkpt>
      <trkpt lat="49.63361" lon="-1.81864">
        <ele>124</ele>
        <time>2011-06-25T14:15:38Z</time>
      </trkpt>
      <trkpt lat="49.63368" lon="-1.81879">
        <ele>123</ele>
        <time>2011-06-25T14:15:40Z</time>
      </trkpt>
      <trkpt lat="49.63381" lon="-1.81911">
        <ele>121</ele>
        <time>2011-06-25T14:15:44Z</time>
      </trkpt>
      <trkpt lat="49.63399" lon="-1.81943">
        <ele>118</ele>
        <time>2011-06-25T14:15:49Z</time>
      </trkpt>
      <trkpt lat="49.63415" lon="-1.81962">
        <ele>117</ele>
        <time>2011-06-25T14:15:52Z</time>
      </trkpt>
      <trkpt lat="49.63427" lon="-1.81962">
        <ele>117</ele>
        <time>2011-06-25T14:15:56Z</time>
      </trkpt>
      <trkpt lat="49.63434" lon="-1.81945">
        <ele>118</ele>
        <time>2011-06-25T14:16:01Z</time>
      </trkpt>
      <trkpt lat="49.63441" lon="-1.81936">
        <ele>118</ele>
        <time>2011-06-25T14:16:04Z</time>
      </trkpt>
      <trkpt lat="49.63455" lon="-1.81922">
        <ele>120</ele>
        <time>2011-06-25T14:16:11Z</time>
      </trkpt>
      <trkpt lat="49.63463" lon="-1.81911">
        <ele>122</ele>
        <time>2011-06-25T14:16:16Z</time>
      </trkpt>
      <trkpt lat="49.63469" lon="-1.81902">
        <ele>122</ele>
        <time>2011-06-25T14:16:21Z</time>
      </trkpt>
      <trkpt lat="49.63477" lon="-1.81883">
        <ele>122</ele>
        <time>2011-06-25T14:16:28Z</time>
      </trkpt>
      <trkpt lat="49.63484" lon="-1.81863">
        <ele>122</ele>
        <time>2011-06-25T14:16:34Z</time>
      </trkpt>
      <trkpt lat="49.63492" lon="-1.8183">
        <ele>123</ele>
        <time>2011-06-25T14:16:43Z</time>
      </trkpt>
      <trkpt lat="49.63505" lon="-1.81796">
        <ele>130</ele>
        <time>2011-06-25T14:16:52Z</time>
      </trkpt>
      <trkpt lat="49.63512" lon="-1.81771">
        <ele>129</ele>
        <time>2011-06-25T14:16:58Z</time>
      </trkpt>
      <trkpt lat="49.63513" lon="-1.81731">
        <ele>130</ele>
        <time>2011-06-25T14:17:06Z</time>
      </trkpt>
      <trkpt lat="49.63516" lon="-1.81689">
        <ele>132</ele>
        <time>2011-06-25T14:17:14Z</time>
      </trkpt>
      <trkpt lat="49.63519" lon="-1.81669">
        <ele>132</ele>
        <time>2011-06-25T14:17:19Z</time>
      </trkpt>
      <trkpt lat="49.63529" lon="-1.81627">
        <ele>135</ele>
        <time>2011-06-25T14:17:28Z</time>
      </trkpt>
      <trkpt lat="49.63534" lon="-1.81605">
        <ele>136</ele>
        <time>2011-06-25T14:17:33Z</time>
      </trkpt>
      <trkpt lat="49.63545" lon="-1.81577">
        <ele>138</ele>
        <time>2011-06-25T14:17:41Z</time>
      </trkpt>
      <trkpt lat="49.63555" lon="-1.81557">
        <ele>138</ele>
        <time>2011-06-25T14:17:48Z</time>
      </trkpt>
      <trkpt lat="49.63561" lon="-1.81549">
        <ele>138</ele>
        <time>2011-06-25T14:17:54Z</time>
      </trkpt>
      <trkpt lat="49.63566" lon="-1.8154">
        <ele>139</ele>
        <time>2011-06-25T14:17:58Z</time>
      </trkpt>
      <trkpt lat="49.63569" lon="-1.81544">
        <ele>138</ele>
        <time>2011-06-25T14:18:02Z</time>
      </trkpt>
      <trkpt lat="49.63569" lon="-1.81547">
        <ele>138</ele>
        <time>2011-06-25T14:18:03Z</time>
      </trkpt>
      <trkpt lat="49.63563" lon="-1.81581">
        <ele>138</ele>
        <time>2011-06-25T14:18:12Z</time>
      </trkpt>
      <trkpt lat="49.6356" lon="-1.81609">
        <ele>137</ele>
        <time>2011-06-25T14:18:19Z</time>
      </trkpt>
      <trkpt lat="49.63563" lon="-1.81635">
        <ele>137</ele>
        <time>2011-06-25T14:18:26Z</time>
      </trkpt>
      <trkpt lat="49.63569" lon="-1.81662">
        <ele>139</ele>
        <time>2011-06-25T14:18:34Z</time>
      </trkpt>
      <trkpt lat="49.63576" lon="-1.81683">
        <ele>138</ele>
        <time>2011-06-25T14:18:41Z</time>
      </trkpt>
      <trkpt lat="49.63583" lon="-1.81704">
        <ele>138</ele>
        <time>2011-06-25T14:18:49Z</time>
      </trkpt>
      <trkpt lat="49.63588" lon="-1.81732">
        <ele>145</ele>
        <time>2011-06-25T14:18:57Z</time>
      </trkpt>
      <trkpt lat="49.63592" lon="-1.81768">
        <ele>146</ele>
        <time>2011-06-25T14:19:07Z</time>
      </trkpt>
      <trkpt lat="49.63597" lon="-1.81799">
        <ele>148</ele>
        <time>2011-06-25T14:19:15Z</time>
      </trkpt>
      <trkpt lat="49.63606" lon="-1.81824">
        <ele>148</ele>
        <time>2011-06-25T14:19:22Z</time>
      </trkpt>
      <trkpt lat="49.63617" lon="-1.81838">
        <ele>149</ele>
        <time>2011-06-25T14:19:28Z</time>
      </trkpt>
      <trkpt lat="49.63628" lon="-1.81866">
        <ele>150</ele>
        <time>2011-06-25T14:19:36Z</time>
      </trkpt>
      <trkpt lat="49.63637" lon="-1.81897">
        <ele>151</ele>
        <time>2011-06-25T14:19:44Z</time>
      </trkpt>
      <trkpt lat="49.63648" lon="-1.81916">
        <ele>152</ele>
        <time>2011-06-25T14:19:51Z</time>
      </trkpt>
      <trkpt lat="49.63665" lon="-1.81937">
        <ele>152</ele>
        <time>2011-06-25T14:19:59Z</time>
      </trkpt>
      <trkpt lat="49.6368" lon="-1.81955">
        <ele>156</ele>
        <time>2011-06-25T14:20:06Z</time>
      </trkpt>
      <trkpt lat="49.63694" lon="-1.81973">
        <ele>156</ele>
        <time>2011-06-25T14:20:13Z</time>
      </trkpt>
      <trkpt lat="49.63703" lon="-1.81985">
        <ele>156</ele>
        <time>2011-06-25T14:20:19Z</time>
      </trkpt>
      <trkpt lat="49.63712" lon="-1.81991">
        <ele>156</ele>
        <time>2011-06-25T14:20:25Z</time>
      </trkpt>
      <trkpt lat="49.63719" lon="-1.82">
        <ele>156</ele>
        <time>2011-06-25T14:20:30Z</time>
      </trkpt>
      <trkpt lat="49.63731" lon="-1.8201">
        <ele>156</ele>
        <time>2011-06-25T14:20:36Z</time>
      </trkpt>
      <trkpt lat="49.63746" lon="-1.82023">
        <ele>156</ele>
        <time>2011-06-25T14:20:43Z</time>
      </trkpt>
      <trkpt lat="49.63751" lon="-1.82024">
        <ele>155</ele>
        <time>2011-06-25T14:20:45Z</time>
      </trkpt>
      <trkpt lat="49.63757" lon="-1.82015">
        <ele>156</ele>
        <time>2011-06-25T14:20:49Z</time>
      </trkpt>
      <trkpt lat="49.63758" lon="-1.82011">
        <ele>156</ele>
        <time>2011-06-25T14:20:50Z</time>
      </trkpt>
      <trkpt lat="49.63763" lon="-1.81961">
        <ele>155</ele>
        <time>2011-06-25T14:21:02Z</time>
      </trkpt>
      <trkpt lat="49.63767" lon="-1.81921">
        <ele>156</ele>
        <time>2011-06-25T14:21:11Z</time>
      </trkpt>
      <trkpt lat="49.6377" lon="-1.81888">
        <ele>157</ele>
        <time>2011-06-25T14:21:19Z</time>
      </trkpt>
      <trkpt lat="49.63774" lon="-1.81853">
        <ele>157</ele>
        <time>2011-06-25T14:21:28Z</time>
      </trkpt>
      <trkpt lat="49.63782" lon="-1.81835">
        <ele>157</ele>
        <time>2011-06-25T14:21:34Z</time>
      </trkpt>
      <trkpt lat="49.63799" lon="-1.81811">
        <ele>158</ele>
        <time>2011-06-25T14:21:42Z</time>
      </trkpt>
      <trkpt lat="49.6381" lon="-1.81779">
        <ele>159</ele>
        <time>2011-06-25T14:21:50Z</time>
      </trkpt>
      <trkpt lat="49.6382" lon="-1.81745">
        <ele>160</ele>
        <time>2011-06-25T14:21:58Z</time>
      </trkpt>
      <trkpt lat="49.63834" lon="-1.81715">
        <ele>157</ele>
        <time>2011-06-25T14:22:05Z</time>
      </trkpt>
      <trkpt lat="49.63844" lon="-1.81702">
        <ele>156</ele>
        <time>2011-06-25T14:22:10Z</time>
      </trkpt>
      <trkpt lat="49.63854" lon="-1.81677">
        <ele>157</ele>
        <time>2011-06-25T14:22:15Z</time>
      </trkpt>
      <trkpt lat="49.63867" lon="-1.81649">
        <ele>157</ele>
        <time>2011-06-25T14:22:21Z</time>
      </trkpt>
      <trkpt lat="49.63878" lon="-1.81624">
        <ele>157</ele>
        <time>2011-06-25T14:22:27Z</time>
      </trkpt>
      <trkpt lat="49.63879" lon="-1.81604">
        <ele>157</ele>
        <time>2011-06-25T14:22:33Z</time>
      </trkpt>
      <trkpt lat="49.63882" lon="-1.81581">
        <ele>157</ele>
        <time>2011-06-25T14:22:40Z</time>
      </trkpt>
      <trkpt lat="49.63887" lon="-1.81559">
        <ele>157</ele>
        <time>2011-06-25T14:22:47Z</time>
      </trkpt>
      <trkpt lat="49.63895" lon="-1.81534">
        <ele>157</ele>
        <time>2011-06-25T14:22:53Z</time>
      </trkpt>
      <trkpt lat="49.63911" lon="-1.81503">
        <ele>157</ele>
        <time>2011-06-25T14:23:00Z</time>
      </trkpt>
      <trkpt lat="49.63924" lon="-1.81484">
        <ele>155</ele>
        <time>2011-06-25T14:23:06Z</time>
      </trkpt>
      <trkpt lat="49.63931" lon="-1.81485">
        <ele>154</ele>
        <time>2011-06-25T14:23:09Z</time>
      </trkpt>
      <trkpt lat="49.63932" lon="-1.81497">
        <ele>155</ele>
        <time>2011-06-25T14:23:13Z</time>
      </trkpt>
      <trkpt lat="49.63926" lon="-1.81507">
        <ele>154</ele>
        <time>2011-06-25T14:23:17Z</time>
      </trkpt>
      <trkpt lat="49.63923" lon="-1.81524">
        <ele>152</ele>
        <time>2011-06-25T14:23:23Z</time>
      </trkpt>
      <trkpt lat="49.63921" lon="-1.81527">
        <ele>152</ele>
        <time>2011-06-25T14:23:25Z</time>
      </trkpt>
      <trkpt lat="49.63918" lon="-1.81531">
        <ele>152</ele>
        <time>2011-06-25T14:23:28Z</time>
      </trkpt>
      <trkpt lat="49.63917" lon="-1.81544">
        <ele>151</ele>
        <time>2011-06-25T14:23:34Z</time>
      </trkpt>
      <trkpt lat="49.63918" lon="-1.81547">
        <ele>151</ele>
        <time>2011-06-25T14:23:41Z</time>
      </trkpt>
      <trkpt lat="49.63917" lon="-1.81545">
        <ele>151</ele>
        <time>2011-06-25T14:23:48Z</time>
      </trkpt>
      <trkpt lat="49.63916" lon="-1.81539">
        <ele>157</ele>
        <time>2011-06-25T14:23:53Z</time>
      </trkpt>
      <trkpt lat="49.63918" lon="-1.81529">
        <ele>152</ele>
        <time>2011-06-25T14:24:01Z</time>
      </trkpt>
      <trkpt lat="49.63921" lon="-1.81525">
        <ele>152</ele>
        <time>2011-06-25T14:24:06Z</time>
      </trkpt>
      <trkpt lat="49.63921" lon="-1.81524">
        <ele>152</ele>
        <time>2011-06-25T14:24:11Z</time>
      </trkpt>
      <trkpt lat="49.63925" lon="-1.81508">
        <ele>154</ele>
        <time>2011-06-25T14:24:18Z</time>
      </trkpt>
      <trkpt lat="49.63931" lon="-1.81494">
        <ele>155</ele>
        <time>2011-06-25T14:24:23Z</time>
      </trkpt>
      <trkpt lat="49.63929" lon="-1.8148">
        <ele>154</ele>
        <time>2011-06-25T14:24:28Z</time>
      </trkpt>
      <trkpt lat="49.63929" lon="-1.81472">
        <ele>154</ele>
        <time>2011-06-25T14:24:33Z</time>
      </trkpt>
      <trkpt lat="49.6393" lon="-1.81473">
        <ele>154</ele>
        <time>2011-06-25T14:24:39Z</time>
      </trkpt>
      <trkpt lat="49.63934" lon="-1.81476">
        <ele>154</ele>
        <time>2011-06-25T14:24:43Z</time>
      </trkpt>
      <trkpt lat="49.63943" lon="-1.81473">
        <ele>153</ele>
        <time>2011-06-25T14:24:50Z</time>
      </trkpt>
      <trkpt lat="49.63951" lon="-1.81471">
        <ele>153</ele>
        <time>2011-06-25T14:24:55Z</time>
      </trkpt>
      <trkpt lat="49.63961" lon="-1.81473">
        <ele>152</ele>
        <time>2011-06-25T14:24:59Z</time>
      </trkpt>
      <trkpt lat="49.63964" lon="-1.81474">
        <ele>152</ele>
        <time>2011-06-25T14:25:00Z</time>
      </trkpt>
      <trkpt lat="49.63972" lon="-1.81479">
        <ele>151</ele>
        <time>2011-06-25T14:25:06Z</time>
      </trkpt>
      <trkpt lat="49.63985" lon="-1.81483">
        <ele>150</ele>
        <time>2011-06-25T14:25:13Z</time>
      </trkpt>
      <trkpt lat="49.63988" lon="-1.81484">
        <ele>150</ele>
        <time>2011-06-25T14:25:14Z</time>
      </trkpt>
      <trkpt lat="49.63998" lon="-1.81495">
        <ele>148</ele>
        <time>2011-06-25T14:25:19Z</time>
      </trkpt>
      <trkpt lat="49.64008" lon="-1.81496">
        <ele>144</ele>
        <time>2011-06-25T14:25:24Z</time>
      </trkpt>
      <trkpt lat="49.64026" lon="-1.81493">
        <ele>140</ele>
        <time>2011-06-25T14:25:31Z</time>
      </trkpt>
      <trkpt lat="49.64041" lon="-1.81491">
        <ele>137</ele>
        <time>2011-06-25T14:25:37Z</time>
      </trkpt>
      <trkpt lat="49.64056" lon="-1.81478">
        <ele>135</ele>
        <time>2011-06-25T14:25:43Z</time>
      </trkpt>
      <trkpt lat="49.64061" lon="-1.81483">
        <ele>134</ele>
        <time>2011-06-25T14:25:46Z</time>
      </trkpt>
      <trkpt lat="49.64062" lon="-1.815">
        <ele>130</ele>
        <time>2011-06-25T14:25:50Z</time>
      </trkpt>
      <trkpt lat="49.6406" lon="-1.81533">
        <ele>130</ele>
        <time>2011-06-25T14:25:55Z</time>
      </trkpt>
      <trkpt lat="49.6406" lon="-1.81556">
        <ele>128</ele>
        <time>2011-06-25T14:25:59Z</time>
      </trkpt>
      <trkpt lat="49.6406" lon="-1.81586">
        <ele>119</ele>
        <time>2011-06-25T14:26:04Z</time>
      </trkpt>
      <trkpt lat="49.64056" lon="-1.81604">
        <ele>119</ele>
        <time>2011-06-25T14:26:08Z</time>
      </trkpt>
      <trkpt lat="49.64055" lon="-1.81608">
        <ele>119</ele>
        <time>2011-06-25T14:26:09Z</time>
      </trkpt>
      <trkpt lat="49.64051" lon="-1.81636">
        <ele>117</ele>
        <time>2011-06-25T14:26:15Z</time>
      </trkpt>
      <trkpt lat="49.64047" lon="-1.81655">
        <ele>116</ele>
        <time>2011-06-25T14:26:19Z</time>
      </trkpt>
      <trkpt lat="49.64046" lon="-1.81672">
        <ele>107</ele>
        <time>2011-06-25T14:26:23Z</time>
      </trkpt>
      <trkpt lat="49.64046" lon="-1.81691">
        <ele>107</ele>
        <time>2011-06-25T14:26:28Z</time>
      </trkpt>
      <trkpt lat="49.64045" lon="-1.81703">
        <ele>106</ele>
        <time>2011-06-25T14:26:31Z</time>
      </trkpt>
      <trkpt lat="49.64041" lon="-1.81725">
        <ele>105</ele>
        <time>2011-06-25T14:26:38Z</time>
      </trkpt>
      <trkpt lat="49.64039" lon="-1.81738">
        <ele>105</ele>
        <time>2011-06-25T14:26:42Z</time>
      </trkpt>
      <trkpt lat="49.64035" lon="-1.81761">
        <ele>100</ele>
        <time>2011-06-25T14:26:48Z</time>
      </trkpt>
      <trkpt lat="49.64033" lon="-1.81772">
        <ele>100</ele>
        <time>2011-06-25T14:26:50Z</time>
      </trkpt>
      <trkpt lat="49.64025" lon="-1.818">
        <ele>99</ele>
        <time>2011-06-25T14:26:56Z</time>
      </trkpt>
      <trkpt lat="49.64024" lon="-1.81816">
        <ele>98</ele>
        <time>2011-06-25T14:27:00Z</time>
      </trkpt>
      <trkpt lat="49.64019" lon="-1.81841">
        <ele>96</ele>
        <time>2011-06-25T14:27:05Z</time>
      </trkpt>
      <trkpt lat="49.64017" lon="-1.81854">
        <ele>95</ele>
        <time>2011-06-25T14:27:07Z</time>
      </trkpt>
      <trkpt lat="49.64011" lon="-1.81892">
        <ele>94</ele>
        <time>2011-06-25T14:27:13Z</time>
      </trkpt>
      <trkpt lat="49.64009" lon="-1.81905">
        <ele>92</ele>
        <time>2011-06-25T14:27:15Z</time>
      </trkpt>
      <trkpt lat="49.64007" lon="-1.81924">
        <ele>91</ele>
        <time>2011-06-25T14:27:18Z</time>
      </trkpt>
      <trkpt lat="49.64005" lon="-1.81952">
        <ele>91</ele>
        <time>2011-06-25T14:27:22Z</time>
      </trkpt>
      <trkpt lat="49.64006" lon="-1.81981">
        <ele>90</ele>
        <time>2011-06-25T14:27:27Z</time>
      </trkpt>
      <trkpt lat="49.64013" lon="-1.81999">
        <ele>90</ele>
        <time>2011-06-25T14:27:32Z</time>
      </trkpt>
      <trkpt lat="49.64016" lon="-1.82009">
        <ele>89</ele>
        <time>2011-06-25T14:27:35Z</time>
      </trkpt>
      <trkpt lat="49.64029" lon="-1.82044">
        <ele>89</ele>
        <time>2011-06-25T14:27:42Z</time>
      </trkpt>
      <trkpt lat="49.64033" lon="-1.82059">
        <ele>89</ele>
        <time>2011-06-25T14:27:46Z</time>
      </trkpt>
      <trkpt lat="49.64041" lon="-1.82082">
        <ele>89</ele>
        <time>2011-06-25T14:27:52Z</time>
      </trkpt>
      <trkpt lat="49.64049" lon="-1.82105">
        <ele>88</ele>
        <time>2011-06-25T14:27:57Z</time>
      </trkpt>
      <trkpt lat="49.64056" lon="-1.82128">
        <ele>87</ele>
        <time>2011-06-25T14:28:02Z</time>
      </trkpt>
      <trkpt lat="49.64061" lon="-1.82146">
        <ele>86</ele>
        <time>2011-06-25T14:28:06Z</time>
      </trkpt>
      <trkpt lat="49.64074" lon="-1.82165">
        <ele>82</ele>
        <time>2011-06-25T14:28:11Z</time>
      </trkpt>
      <trkpt lat="49.64082" lon="-1.82182">
        <ele>84</ele>
        <time>2011-06-25T14:28:14Z</time>
      </trkpt>
      <trkpt lat="49.64099" lon="-1.82213">
        <ele>81</ele>
        <time>2011-06-25T14:28:21Z</time>
      </trkpt>
      <trkpt lat="49.64117" lon="-1.82249">
        <ele>81</ele>
        <time>2011-06-25T14:28:28Z</time>
      </trkpt>
      <trkpt lat="49.64134" lon="-1.82286">
        <ele>78</ele>
        <time>2011-06-25T14:28:36Z</time>
      </trkpt>
      <trkpt lat="49.64143" lon="-1.82304">
        <ele>77</ele>
        <time>2011-06-25T14:28:40Z</time>
      </trkpt>
      <trkpt lat="49.64152" lon="-1.82328">
        <ele>74</ele>
        <time>2011-06-25T14:28:44Z</time>
      </trkpt>
      <trkpt lat="49.64155" lon="-1.82355">
        <ele>75</ele>
        <time>2011-06-25T14:28:49Z</time>
      </trkpt>
      <trkpt lat="49.64162" lon="-1.8237">
        <ele>75</ele>
        <time>2011-06-25T14:28:54Z</time>
      </trkpt>
      <trkpt lat="49.64168" lon="-1.82387">
        <ele>72</ele>
        <time>2011-06-25T14:28:59Z</time>
      </trkpt>
      <trkpt lat="49.64171" lon="-1.82413">
        <ele>69</ele>
        <time>2011-06-25T14:29:04Z</time>
      </trkpt>
      <trkpt lat="49.64173" lon="-1.82445">
        <ele>68</ele>
        <time>2011-06-25T14:29:10Z</time>
      </trkpt>
      <trkpt lat="49.64169" lon="-1.82474">
        <ele>67</ele>
        <time>2011-06-25T14:29:17Z</time>
      </trkpt>
      <trkpt lat="49.64168" lon="-1.8248">
        <ele>67</ele>
        <time>2011-06-25T14:29:21Z</time>
      </trkpt>
      <trkpt lat="49.64168" lon="-1.82478">
        <ele>67</ele>
        <time>2011-06-25T14:29:52Z</time>
      </trkpt>
      <trkpt lat="49.64169" lon="-1.82477">
        <ele>67</ele>
        <time>2011-06-25T14:29:53Z</time>
      </trkpt>
      <trkpt lat="49.64171" lon="-1.82464">
        <ele>68</ele>
        <time>2011-06-25T14:29:58Z</time>
      </trkpt>
      <trkpt lat="49.64177" lon="-1.82464">
        <ele>68</ele>
        <time>2011-06-25T14:30:01Z</time>
      </trkpt>
      <trkpt lat="49.64179" lon="-1.82468">
        <ele>68</ele>
        <time>2011-06-25T14:30:03Z</time>
      </trkpt>
      <trkpt lat="49.64184" lon="-1.82485">
        <ele>67</ele>
        <time>2011-06-25T14:30:07Z</time>
      </trkpt>
      <trkpt lat="49.64197" lon="-1.82506">
        <ele>64</ele>
        <time>2011-06-25T14:30:11Z</time>
      </trkpt>
      <trkpt lat="49.642" lon="-1.82504">
        <ele>64</ele>
        <time>2011-06-25T14:30:12Z</time>
      </trkpt>
      <trkpt lat="49.64214" lon="-1.82498">
        <ele>68</ele>
        <time>2011-06-25T14:30:17Z</time>
      </trkpt>
      <trkpt lat="49.64222" lon="-1.82507">
        <ele>64</ele>
        <time>2011-06-25T14:30:22Z</time>
      </trkpt>
      <trkpt lat="49.64235" lon="-1.82525">
        <ele>64</ele>
        <time>2011-06-25T14:30:29Z</time>
      </trkpt>
      <trkpt lat="49.6425" lon="-1.82524">
        <ele>67</ele>
        <time>2011-06-25T14:30:35Z</time>
      </trkpt>
      <trkpt lat="49.64272" lon="-1.82517">
        <ele>67</ele>
        <time>2011-06-25T14:30:43Z</time>
      </trkpt>
      <trkpt lat="49.64299" lon="-1.82505">
        <ele>68</ele>
        <time>2011-06-25T14:30:52Z</time>
      </trkpt>
      <trkpt lat="49.64324" lon="-1.82484">
        <ele>69</ele>
        <time>2011-06-25T14:31:02Z</time>
      </trkpt>
      <trkpt lat="49.64337" lon="-1.82464">
        <ele>74</ele>
        <time>2011-06-25T14:31:08Z</time>
      </trkpt>
      <trkpt lat="49.64348" lon="-1.82444">
        <ele>75</ele>
        <time>2011-06-25T14:31:14Z</time>
      </trkpt>
      <trkpt lat="49.64359" lon="-1.82422">
        <ele>75</ele>
        <time>2011-06-25T14:31:20Z</time>
      </trkpt>
      <trkpt lat="49.6437" lon="-1.824">
        <ele>78</ele>
        <time>2011-06-25T14:31:26Z</time>
      </trkpt>
      <trkpt lat="49.64381" lon="-1.82372">
        <ele>79</ele>
        <time>2011-06-25T14:31:33Z</time>
      </trkpt>
      <trkpt lat="49.64394" lon="-1.82339">
        <ele>78</ele>
        <time>2011-06-25T14:31:41Z</time>
      </trkpt>
      <trkpt lat="49.64404" lon="-1.82308">
        <ele>82</ele>
        <time>2011-06-25T14:31:48Z</time>
      </trkpt>
      <trkpt lat="49.64415" lon="-1.82268">
        <ele>81</ele>
        <time>2011-06-25T14:31:57Z</time>
      </trkpt>
      <trkpt lat="49.64425" lon="-1.82234">
        <ele>81</ele>
        <time>2011-06-25T14:32:04Z</time>
      </trkpt>
      <trkpt lat="49.64432" lon="-1.82203">
        <ele>84</ele>
        <time>2011-06-25T14:32:11Z</time>
      </trkpt>
      <trkpt lat="49.64439" lon="-1.82165">
        <ele>85</ele>
        <time>2011-06-25T14:32:19Z</time>
      </trkpt>
      <trkpt lat="49.64446" lon="-1.82129">
        <ele>87</ele>
        <time>2011-06-25T14:32:27Z</time>
      </trkpt>
      <trkpt lat="49.64453" lon="-1.82079">
        <ele>91</ele>
        <time>2011-06-25T14:32:38Z</time>
      </trkpt>
      <trkpt lat="49.64461" lon="-1.82039">
        <ele>91</ele>
        <time>2011-06-25T14:32:47Z</time>
      </trkpt>
      <trkpt lat="49.64471" lon="-1.81997">
        <ele>93</ele>
        <time>2011-06-25T14:32:57Z</time>
      </trkpt>
      <trkpt lat="49.64483" lon="-1.81962">
        <ele>93</ele>
        <time>2011-06-25T14:33:06Z</time>
      </trkpt>
      <trkpt lat="49.64496" lon="-1.81924">
        <ele>90</ele>
        <time>2011-06-25T14:33:16Z</time>
      </trkpt>
      <trkpt lat="49.64502" lon="-1.81895">
        <ele>92</ele>
        <time>2011-06-25T14:33:23Z</time>
      </trkpt>
      <trkpt lat="49.64507" lon="-1.81861">
        <ele>94</ele>
        <time>2011-06-25T14:33:31Z</time>
      </trkpt>
      <trkpt lat="49.6451" lon="-1.81844">
        <ele>93</ele>
        <time>2011-06-25T14:33:35Z</time>
      </trkpt>
      <trkpt lat="49.64513" lon="-1.81825">
        <ele>94</ele>
        <time>2011-06-25T14:33:41Z</time>
      </trkpt>
      <trkpt lat="49.64517" lon="-1.81806">
        <ele>96</ele>
        <time>2011-06-25T14:33:47Z</time>
      </trkpt>
      <trkpt lat="49.6452" lon="-1.81785">
        <ele>97</ele>
        <time>2011-06-25T14:33:52Z</time>
      </trkpt>
      <trkpt lat="49.64526" lon="-1.81756">
        <ele>97</ele>
        <time>2011-06-25T14:33:59Z</time>
      </trkpt>
      <trkpt lat="49.6453" lon="-1.81739">
        <ele>99</ele>
        <time>2011-06-25T14:34:04Z</time>
      </trkpt>
      <trkpt lat="49.64537" lon="-1.81714">
        <ele>100</ele>
        <time>2011-06-25T14:34:10Z</time>
      </trkpt>
      <trkpt lat="49.64542" lon="-1.8169">
        <ele>100</ele>
        <time>2011-06-25T14:34:15Z</time>
      </trkpt>
      <trkpt lat="49.64544" lon="-1.81664">
        <ele>102</ele>
        <time>2011-06-25T14:34:20Z</time>
      </trkpt>
      <trkpt lat="49.64545" lon="-1.8166">
        <ele>102</ele>
        <time>2011-06-25T14:34:21Z</time>
      </trkpt>
      <trkpt lat="49.64548" lon="-1.81636">
        <ele>102</ele>
        <time>2011-06-25T14:34:27Z</time>
      </trkpt>
      <trkpt lat="49.6455" lon="-1.81612">
        <ele>102</ele>
        <time>2011-06-25T14:34:32Z</time>
      </trkpt>
      <trkpt lat="49.64551" lon="-1.81598">
        <ele>102</ele>
        <time>2011-06-25T14:34:36Z</time>
      </trkpt>
      <trkpt lat="49.64553" lon="-1.81594">
        <ele>102</ele>
        <time>2011-06-25T14:34:39Z</time>
      </trkpt>
      <trkpt lat="49.64552" lon="-1.81595">
        <ele>102</ele>
        <time>2011-06-25T14:34:44Z</time>
      </trkpt>
      <trkpt lat="49.64558" lon="-1.81594">
        <ele>101</ele>
        <time>2011-06-25T14:34:49Z</time>
      </trkpt>
      <trkpt lat="49.64563" lon="-1.81603">
        <ele>101</ele>
        <time>2011-06-25T14:34:54Z</time>
      </trkpt>
      <trkpt lat="49.64565" lon="-1.81604">
        <ele>101</ele>
        <time>2011-06-25T14:34:59Z</time>
      </trkpt>
      <trkpt lat="49.64568" lon="-1.81606">
        <ele>101</ele>
        <time>2011-06-25T14:35:04Z</time>
      </trkpt>
      <trkpt lat="49.64571" lon="-1.81606">
        <ele>101</ele>
        <time>2011-06-25T14:35:11Z</time>
      </trkpt>
      <trkpt lat="49.64576" lon="-1.81607">
        <ele>100</ele>
        <time>2011-06-25T14:35:16Z</time>
      </trkpt>
      <trkpt lat="49.6458" lon="-1.81594">
        <ele>99</ele>
        <time>2011-06-25T14:35:21Z</time>
      </trkpt>
      <trkpt lat="49.64585" lon="-1.81569">
        <ele>100</ele>
        <time>2011-06-25T14:35:27Z</time>
      </trkpt>
      <trkpt lat="49.6459" lon="-1.8155">
        <ele>101</ele>
        <time>2011-06-25T14:35:32Z</time>
      </trkpt>
      <trkpt lat="49.646" lon="-1.81526">
        <ele>102</ele>
        <time>2011-06-25T14:35:38Z</time>
      </trkpt>
      <trkpt lat="49.64603" lon="-1.81519">
        <ele>102</ele>
        <time>2011-06-25T14:35:40Z</time>
      </trkpt>
      <trkpt lat="49.6462" lon="-1.81509">
        <ele>102</ele>
        <time>2011-06-25T14:35:47Z</time>
      </trkpt>
      <trkpt lat="49.64639" lon="-1.81507">
        <ele>102</ele>
        <time>2011-06-25T14:35:54Z</time>
      </trkpt>
      <trkpt lat="49.6465" lon="-1.81508">
        <ele>102</ele>
        <time>2011-06-25T14:36:00Z</time>
      </trkpt>
      <trkpt lat="49.64666" lon="-1.81509">
        <ele>102</ele>
        <time>2011-06-25T14:36:06Z</time>
      </trkpt>
      <trkpt lat="49.64684" lon="-1.8151">
        <ele>105</ele>
        <time>2011-06-25T14:36:12Z</time>
      </trkpt>
      <trkpt lat="49.64703" lon="-1.81505">
        <ele>106</ele>
        <time>2011-06-25T14:36:19Z</time>
      </trkpt>
      <trkpt lat="49.6472" lon="-1.81507">
        <ele>106</ele>
        <time>2011-06-25T14:36:25Z</time>
      </trkpt>
      <trkpt lat="49.64738" lon="-1.81507">
        <ele>105</ele>
        <time>2011-06-25T14:36:31Z</time>
      </trkpt>
      <trkpt lat="49.64763" lon="-1.81513">
        <ele>107</ele>
        <time>2011-06-25T14:36:39Z</time>
      </trkpt>
      <trkpt lat="49.64793" lon="-1.81525">
        <ele>109</ele>
        <time>2011-06-25T14:36:49Z</time>
      </trkpt>
      <trkpt lat="49.64809" lon="-1.81535">
        <ele>110</ele>
        <time>2011-06-25T14:36:55Z</time>
      </trkpt>
      <trkpt lat="49.64829" lon="-1.81552">
        <ele>111</ele>
        <time>2011-06-25T14:37:03Z</time>
      </trkpt>
      <trkpt lat="49.64842" lon="-1.81566">
        <ele>113</ele>
        <time>2011-06-25T14:37:09Z</time>
      </trkpt>
      <trkpt lat="49.64857" lon="-1.8158">
        <ele>113</ele>
        <time>2011-06-25T14:37:16Z</time>
      </trkpt>
      <trkpt lat="49.6487" lon="-1.81592">
        <ele>117</ele>
        <time>2011-06-25T14:37:22Z</time>
      </trkpt>
      <trkpt lat="49.64884" lon="-1.81608">
        <ele>118</ele>
        <time>2011-06-25T14:37:29Z</time>
      </trkpt>
      <trkpt lat="49.64895" lon="-1.81623">
        <ele>118</ele>
        <time>2011-06-25T14:37:36Z</time>
      </trkpt>
      <trkpt lat="49.64906" lon="-1.81632">
        <ele>119</ele>
        <time>2011-06-25T14:37:42Z</time>
      </trkpt>
      <trkpt lat="49.6492" lon="-1.81646">
        <ele>118</ele>
        <time>2011-06-25T14:37:49Z</time>
      </trkpt>
      <trkpt lat="49.64925" lon="-1.81652">
        <ele>118</ele>
        <time>2011-06-25T14:37:54Z</time>
      </trkpt>
      <trkpt lat="49.64923" lon="-1.81652">
        <ele>118</ele>
        <time>2011-06-25T14:38:18Z</time>
      </trkpt>
      <trkpt lat="49.64927" lon="-1.81652">
        <ele>118</ele>
        <time>2011-06-25T14:38:55Z</time>
      </trkpt>
      <trkpt lat="49.64938" lon="-1.81655">
        <ele>118</ele>
        <time>2011-06-25T14:39:01Z</time>
      </trkpt>
      <trkpt lat="49.64942" lon="-1.81655">
        <ele>118</ele>
        <time>2011-06-25T14:39:03Z</time>
      </trkpt>
      <trkpt lat="49.64952" lon="-1.81652">
        <ele>118</ele>
        <time>2011-06-25T14:39:08Z</time>
      </trkpt>
      <trkpt lat="49.64964" lon="-1.81652">
        <ele>118</ele>
        <time>2011-06-25T14:39:12Z</time>
      </trkpt>
      <trkpt lat="49.64979" lon="-1.81652">
        <ele>118</ele>
        <time>2011-06-25T14:39:17Z</time>
      </trkpt>
      <trkpt lat="49.64992" lon="-1.81662">
        <ele>118</ele>
        <time>2011-06-25T14:39:23Z</time>
      </trkpt>
      <trkpt lat="49.64998" lon="-1.81676">
        <ele>120</ele>
        <time>2011-06-25T14:39:29Z</time>
      </trkpt>
      <trkpt lat="49.65002" lon="-1.81696">
        <ele>124</ele>
        <time>2011-06-25T14:39:35Z</time>
      </trkpt>
      <trkpt lat="49.65005" lon="-1.81718">
        <ele>126</ele>
        <time>2011-06-25T14:39:42Z</time>
      </trkpt>
      <trkpt lat="49.65006" lon="-1.8172">
        <ele>126</ele>
        <time>2011-06-25T14:39:43Z</time>
      </trkpt>
      <trkpt lat="49.65008" lon="-1.81742">
        <ele>126</ele>
        <time>2011-06-25T14:39:50Z</time>
      </trkpt>
      <trkpt lat="49.65008" lon="-1.81764">
        <ele>129</ele>
        <time>2011-06-25T14:39:57Z</time>
      </trkpt>
      <trkpt lat="49.65007" lon="-1.81783">
        <ele>131</ele>
        <time>2011-06-25T14:40:03Z</time>
      </trkpt>
      <trkpt lat="49.65014" lon="-1.81812">
        <ele>132</ele>
        <time>2011-06-25T14:40:11Z</time>
      </trkpt>
      <trkpt lat="49.65021" lon="-1.8183">
        <ele>132</ele>
        <time>2011-06-25T14:40:17Z</time>
      </trkpt>
      <trkpt lat="49.65033" lon="-1.81844">
        <ele>136</ele>
        <time>2011-06-25T14:40:23Z</time>
      </trkpt>
      <trkpt lat="49.65047" lon="-1.81856">
        <ele>137</ele>
        <time>2011-06-25T14:40:29Z</time>
      </trkpt>
      <trkpt lat="49.65058" lon="-1.8187">
        <ele>137</ele>
        <time>2011-06-25T14:40:35Z</time>
      </trkpt>
      <trkpt lat="49.65067" lon="-1.81879">
        <ele>138</ele>
        <time>2011-06-25T14:40:40Z</time>
      </trkpt>
      <trkpt lat="49.65078" lon="-1.81897">
        <ele>138</ele>
        <time>2011-06-25T14:40:47Z</time>
      </trkpt>
      <trkpt lat="49.6509" lon="-1.81921">
        <ele>140</ele>
        <time>2011-06-25T14:40:55Z</time>
      </trkpt>
      <trkpt lat="49.65097" lon="-1.81948">
        <ele>144</ele>
        <time>2011-06-25T14:41:03Z</time>
      </trkpt>
      <trkpt lat="49.65101" lon="-1.81977">
        <ele>145</ele>
        <time>2011-06-25T14:41:11Z</time>
      </trkpt>
      <trkpt lat="49.65105" lon="-1.81995">
        <ele>145</ele>
        <time>2011-06-25T14:41:17Z</time>
      </trkpt>
      <trkpt lat="49.6511" lon="-1.82025">
        <ele>149</ele>
        <time>2011-06-25T14:41:26Z</time>
      </trkpt>
      <trkpt lat="49.65114" lon="-1.82048">
        <ele>150</ele>
        <time>2011-06-25T14:41:33Z</time>
      </trkpt>
      <trkpt lat="49.65118" lon="-1.82065">
        <ele>151</ele>
        <time>2011-06-25T14:41:40Z</time>
      </trkpt>
      <trkpt lat="49.65119" lon="-1.82074">
        <ele>151</ele>
        <time>2011-06-25T14:41:44Z</time>
      </trkpt>
      <trkpt lat="49.65119" lon="-1.82103">
        <ele>153</ele>
        <time>2011-06-25T14:41:53Z</time>
      </trkpt>
      <trkpt lat="49.65116" lon="-1.82122">
        <ele>153</ele>
        <time>2011-06-25T14:41:59Z</time>
      </trkpt>
      <trkpt lat="49.65115" lon="-1.82147">
        <ele>153</ele>
        <time>2011-06-25T14:42:05Z</time>
      </trkpt>
      <trkpt lat="49.65115" lon="-1.82158">
        <ele>153</ele>
        <time>2011-06-25T14:42:09Z</time>
      </trkpt>
      <trkpt lat="49.65116" lon="-1.82166">
        <ele>153</ele>
        <time>2011-06-25T14:42:15Z</time>
      </trkpt>
      <trkpt lat="49.65116" lon="-1.82192">
        <ele>154</ele>
        <time>2011-06-25T14:42:22Z</time>
      </trkpt>
      <trkpt lat="49.65117" lon="-1.82221">
        <ele>155</ele>
        <time>2011-06-25T14:42:30Z</time>
      </trkpt>
      <trkpt lat="49.65119" lon="-1.82242">
        <ele>155</ele>
        <time>2011-06-25T14:42:37Z</time>
      </trkpt>
      <trkpt lat="49.65118" lon="-1.82258">
        <ele>157</ele>
        <time>2011-06-25T14:42:44Z</time>
      </trkpt>
      <trkpt lat="49.65112" lon="-1.82273">
        <ele>158</ele>
        <time>2011-06-25T14:42:51Z</time>
      </trkpt>
      <trkpt lat="49.65108" lon="-1.82276">
        <ele>158</ele>
        <time>2011-06-25T14:42:54Z</time>
      </trkpt>
      <trkpt lat="49.65104" lon="-1.82278">
        <ele>158</ele>
        <time>2011-06-25T14:43:00Z</time>
      </trkpt>
      <trkpt lat="49.65103" lon="-1.8228">
        <ele>158</ele>
        <time>2011-06-25T14:43:07Z</time>
      </trkpt>
      <trkpt lat="49.65101" lon="-1.82279">
        <ele>158</ele>
        <time>2011-06-25T14:43:33Z</time>
      </trkpt>
      <trkpt lat="49.65097" lon="-1.82282">
        <ele>158</ele>
        <time>2011-06-25T14:43:40Z</time>
      </trkpt>
      <trkpt lat="49.65096" lon="-1.82282">
        <ele>158</ele>
        <time>2011-06-25T14:43:41Z</time>
      </trkpt>
      <trkpt lat="49.65087" lon="-1.82291">
        <ele>159</ele>
        <time>2011-06-25T14:43:50Z</time>
      </trkpt>
      <trkpt lat="49.65082" lon="-1.82302">
        <ele>164</ele>
        <time>2011-06-25T14:43:58Z</time>
      </trkpt>
      <trkpt lat="49.65076" lon="-1.82313">
        <ele>164</ele>
        <time>2011-06-25T14:44:06Z</time>
      </trkpt>
      <trkpt lat="49.65068" lon="-1.82325">
        <ele>164</ele>
        <time>2011-06-25T14:44:15Z</time>
      </trkpt>
      <trkpt lat="49.65067" lon="-1.82326">
        <ele>164</ele>
        <time>2011-06-25T14:44:16Z</time>
      </trkpt>
      <trkpt lat="49.65063" lon="-1.82328">
        <ele>165</ele>
        <time>2011-06-25T14:44:20Z</time>
      </trkpt>
      <trkpt lat="49.65052" lon="-1.82331">
        <ele>165</ele>
        <time>2011-06-25T14:44:29Z</time>
      </trkpt>
      <trkpt lat="49.65042" lon="-1.82337">
        <ele>168</ele>
        <time>2011-06-25T14:44:37Z</time>
      </trkpt>
      <trkpt lat="49.6503" lon="-1.82343">
        <ele>169</ele>
        <time>2011-06-25T14:44:45Z</time>
      </trkpt>
      <trkpt lat="49.65017" lon="-1.82347">
        <ele>169</ele>
        <time>2011-06-25T14:44:52Z</time>
      </trkpt>
      <trkpt lat="49.65" lon="-1.82351">
        <ele>170</ele>
        <time>2011-06-25T14:45:00Z</time>
      </trkpt>
      <trkpt lat="49.64981" lon="-1.82357">
        <ele>172</ele>
        <time>2011-06-25T14:45:08Z</time>
      </trkpt>
      <trkpt lat="49.64963" lon="-1.82361">
        <ele>172</ele>
        <time>2011-06-25T14:45:16Z</time>
      </trkpt>
      <trkpt lat="49.6496" lon="-1.82361">
        <ele>172</ele>
        <time>2011-06-25T14:45:21Z</time>
      </trkpt>
      <trkpt lat="49.64956" lon="-1.82363">
        <ele>172</ele>
        <time>2011-06-25T14:46:35Z</time>
      </trkpt>
      <trkpt lat="49.64948" lon="-1.82377">
        <ele>173</ele>
        <time>2011-06-25T14:46:40Z</time>
      </trkpt>
      <trkpt lat="49.64936" lon="-1.82408">
        <ele>173</ele>
        <time>2011-06-25T14:46:47Z</time>
      </trkpt>
      <trkpt lat="49.64915" lon="-1.82445">
        <ele>173</ele>
        <time>2011-06-25T14:46:55Z</time>
      </trkpt>
      <trkpt lat="49.64899" lon="-1.82482">
        <ele>173</ele>
        <time>2011-06-25T14:47:02Z</time>
      </trkpt>
      <trkpt lat="49.64873" lon="-1.82534">
        <ele>172</ele>
        <time>2011-06-25T14:47:12Z</time>
      </trkpt>
      <trkpt lat="49.64851" lon="-1.8258">
        <ele>172</ele>
        <time>2011-06-25T14:47:21Z</time>
      </trkpt>
      <trkpt lat="49.64826" lon="-1.82634">
        <ele>169</ele>
        <time>2011-06-25T14:47:31Z</time>
      </trkpt>
      <trkpt lat="49.64811" lon="-1.82669">
        <ele>167</ele>
        <time>2011-06-25T14:47:38Z</time>
      </trkpt>
      <trkpt lat="49.64806" lon="-1.82685">
        <ele>166</ele>
        <time>2011-06-25T14:47:43Z</time>
      </trkpt>
      <trkpt lat="49.64798" lon="-1.82704">
        <ele>166</ele>
        <time>2011-06-25T14:47:48Z</time>
      </trkpt>
      <trkpt lat="49.64788" lon="-1.82717">
        <ele>165</ele>
        <time>2011-06-25T14:47:52Z</time>
      </trkpt>
      <trkpt lat="49.64778" lon="-1.82726">
        <ele>165</ele>
        <time>2011-06-25T14:47:55Z</time>
      </trkpt>
      <trkpt lat="49.64762" lon="-1.82732">
        <ele>164</ele>
        <time>2011-06-25T14:47:59Z</time>
      </trkpt>
      <trkpt lat="49.64731" lon="-1.82736">
        <ele>162</ele>
        <time>2011-06-25T14:48:07Z</time>
      </trkpt>
      <trkpt lat="49.64712" lon="-1.82748">
        <ele>162</ele>
        <time>2011-06-25T14:48:12Z</time>
      </trkpt>
      <trkpt lat="49.64686" lon="-1.8276">
        <ele>158</ele>
        <time>2011-06-25T14:48:18Z</time>
      </trkpt>
      <trkpt lat="49.64682" lon="-1.82761">
        <ele>158</ele>
        <time>2011-06-25T14:48:19Z</time>
      </trkpt>
      <trkpt lat="49.64673" lon="-1.82766">
        <ele>158</ele>
        <time>2011-06-25T14:48:21Z</time>
      </trkpt>
      <trkpt lat="49.64633" lon="-1.82787">
        <ele>154</ele>
        <time>2011-06-25T14:48:29Z</time>
      </trkpt>
      <trkpt lat="49.64604" lon="-1.82804">
        <ele>153</ele>
        <time>2011-06-25T14:48:35Z</time>
      </trkpt>
      <trkpt lat="49.64589" lon="-1.8281">
        <ele>152</ele>
        <time>2011-06-25T14:48:38Z</time>
      </trkpt>
      <trkpt lat="49.64557" lon="-1.82837">
        <ele>149</ele>
        <time>2011-06-25T14:48:45Z</time>
      </trkpt>
      <trkpt lat="49.64543" lon="-1.82853">
        <ele>149</ele>
        <time>2011-06-25T14:48:50Z</time>
      </trkpt>
      <trkpt lat="49.64524" lon="-1.82877">
        <ele>149</ele>
        <time>2011-06-25T14:48:57Z</time>
      </trkpt>
      <trkpt lat="49.64509" lon="-1.82895">
        <ele>149</ele>
        <time>2011-06-25T14:49:03Z</time>
      </trkpt>
      <trkpt lat="49.64493" lon="-1.82915">
        <ele>150</ele>
        <time>2011-06-25T14:49:09Z</time>
      </trkpt>
      <trkpt lat="49.64477" lon="-1.8294">
        <ele>148</ele>
        <time>2011-06-25T14:49:16Z</time>
      </trkpt>
      <trkpt lat="49.64459" lon="-1.82967">
        <ele>148</ele>
        <time>2011-06-25T14:49:24Z</time>
      </trkpt>
      <trkpt lat="49.64457" lon="-1.8297">
        <ele>148</ele>
        <time>2011-06-25T14:49:27Z</time>
      </trkpt>
      <trkpt lat="49.64457" lon="-1.82969">
        <ele>148</ele>
        <time>2011-06-25T14:49:37Z</time>
      </trkpt>
      <trkpt lat="49.64455" lon="-1.82972">
        <ele>148</ele>
        <time>2011-06-25T14:49:51Z</time>
      </trkpt>
      <trkpt lat="49.64446" lon="-1.82985">
        <ele>148</ele>
        <time>2011-06-25T14:49:57Z</time>
      </trkpt>
      <trkpt lat="49.64429" lon="-1.83011">
        <ele>146</ele>
        <time>2011-06-25T14:50:07Z</time>
      </trkpt>
      <trkpt lat="49.64412" lon="-1.83037">
        <ele>147</ele>
        <time>2011-06-25T14:50:15Z</time>
      </trkpt>
      <trkpt lat="49.64398" lon="-1.83058">
        <ele>146</ele>
        <time>2011-06-25T14:50:21Z</time>
      </trkpt>
      <trkpt lat="49.6439" lon="-1.83072">
        <ele>146</ele>
        <time>2011-06-25T14:50:24Z</time>
      </trkpt>
      <trkpt lat="49.6437" lon="-1.83093">
        <ele>143</ele>
        <time>2011-06-25T14:50:30Z</time>
      </trkpt>
      <trkpt lat="49.64342" lon="-1.83123">
        <ele>142</ele>
        <time>2011-06-25T14:50:38Z</time>
      </trkpt>
      <trkpt lat="49.64308" lon="-1.83165">
        <ele>139</ele>
        <time>2011-06-25T14:50:46Z</time>
      </trkpt>
      <trkpt lat="49.64282" lon="-1.83198">
        <ele>135</ele>
        <time>2011-06-25T14:50:52Z</time>
      </trkpt>
      <trkpt lat="49.64258" lon="-1.83239">
        <ele>135</ele>
        <time>2011-06-25T14:50:59Z</time>
      </trkpt>
      <trkpt lat="49.64248" lon="-1.83256">
        <ele>135</ele>
        <time>2011-06-25T14:51:02Z</time>
      </trkpt>
      <trkpt lat="49.64218" lon="-1.83303">
        <ele>133</ele>
        <time>2011-06-25T14:51:12Z</time>
      </trkpt>
      <trkpt lat="49.64204" lon="-1.83322">
        <ele>133</ele>
        <time>2011-06-25T14:51:17Z</time>
      </trkpt>
      <trkpt lat="49.6419" lon="-1.83346">
        <ele>134</ele>
        <time>2011-06-25T14:51:22Z</time>
      </trkpt>
      <trkpt lat="49.64165" lon="-1.83403">
        <ele>133</ele>
        <time>2011-06-25T14:51:32Z</time>
      </trkpt>
      <trkpt lat="49.64151" lon="-1.83442">
        <ele>132</ele>
        <time>2011-06-25T14:51:39Z</time>
      </trkpt>
      <trkpt lat="49.64136" lon="-1.83488">
        <ele>131</ele>
        <time>2011-06-25T14:51:47Z</time>
      </trkpt>
      <trkpt lat="49.6412" lon="-1.83538">
        <ele>129</ele>
        <time>2011-06-25T14:51:55Z</time>
      </trkpt>
      <trkpt lat="49.64103" lon="-1.83593">
        <ele>124</ele>
        <time>2011-06-25T14:52:03Z</time>
      </trkpt>
      <trkpt lat="49.64094" lon="-1.83639">
        <ele>122</ele>
        <time>2011-06-25T14:52:09Z</time>
      </trkpt>
      <trkpt lat="49.64086" lon="-1.83679">
        <ele>117</ele>
        <time>2011-06-25T14:52:13Z</time>
      </trkpt>
      <trkpt lat="49.64072" lon="-1.83735">
        <ele>110</ele>
        <time>2011-06-25T14:52:18Z</time>
      </trkpt>
      <trkpt lat="49.6406" lon="-1.83793">
        <ele>104</ele>
        <time>2011-06-25T14:52:23Z</time>
      </trkpt>
      <trkpt lat="49.64054" lon="-1.83826">
        <ele>103</ele>
        <time>2011-06-25T14:52:27Z</time>
      </trkpt>
      <trkpt lat="49.64038" lon="-1.83894">
        <ele>100</ele>
        <time>2011-06-25T14:52:37Z</time>
      </trkpt>
      <trkpt lat="49.64026" lon="-1.83945">
        <ele>98</ele>
        <time>2011-06-25T14:52:45Z</time>
      </trkpt>
      <trkpt lat="49.64016" lon="-1.83984">
        <ele>100</ele>
        <time>2011-06-25T14:52:51Z</time>
      </trkpt>
      <trkpt lat="49.64003" lon="-1.84037">
        <ele>96</ele>
        <time>2011-06-25T14:52:59Z</time>
      </trkpt>
      <trkpt lat="49.63993" lon="-1.84084">
        <ele>98</ele>
        <time>2011-06-25T14:53:06Z</time>
      </trkpt>
      <trkpt lat="49.63982" lon="-1.84129">
        <ele>91</ele>
        <time>2011-06-25T14:53:14Z</time>
      </trkpt>
      <trkpt lat="49.63982" lon="-1.84132">
        <ele>91</ele>
        <time>2011-06-25T14:53:17Z</time>
      </trkpt>
      <trkpt lat="49.63981" lon="-1.84139">
        <ele>91</ele>
        <time>2011-06-25T14:53:51Z</time>
      </trkpt>
      <trkpt lat="49.63981" lon="-1.84159">
        <ele>91</ele>
        <time>2011-06-25T14:53:56Z</time>
      </trkpt>
      <trkpt lat="49.63982" lon="-1.84169">
        <ele>89</ele>
        <time>2011-06-25T14:54:00Z</time>
      </trkpt>
      <trkpt lat="49.63982" lon="-1.8417">
        <ele>89</ele>
        <time>2011-06-25T14:54:06Z</time>
      </trkpt>
      <trkpt lat="49.63982" lon="-1.84168">
        <ele>89</ele>
        <time>2011-06-25T14:54:13Z</time>
      </trkpt>
      <trkpt lat="49.63982" lon="-1.84167">
        <ele>89</ele>
        <time>2011-06-25T14:54:15Z</time>
      </trkpt>
      <trkpt lat="49.63981" lon="-1.84162">
        <ele>91</ele>
        <time>2011-06-25T14:54:21Z</time>
      </trkpt>
      <trkpt lat="49.63981" lon="-1.84158">
        <ele>91</ele>
        <time>2011-06-25T14:54:26Z</time>
      </trkpt>
      <trkpt lat="49.63982" lon="-1.84152">
        <ele>91</ele>
        <time>2011-06-25T14:54:30Z</time>
      </trkpt>
      <trkpt lat="49.63984" lon="-1.84145">
        <ele>91</ele>
        <time>2011-06-25T14:54:36Z</time>
      </trkpt>
      <trkpt lat="49.63985" lon="-1.84145">
        <ele>91</ele>
        <time>2011-06-25T14:54:43Z</time>
      </trkpt>
      <trkpt lat="49.63995" lon="-1.8415">
        <ele>91</ele>
        <time>2011-06-25T14:54:48Z</time>
      </trkpt>
      <trkpt lat="49.64003" lon="-1.84153">
        <ele>90</ele>
        <time>2011-06-25T14:54:50Z</time>
      </trkpt>
      <trkpt lat="49.64033" lon="-1.84152">
        <ele>86</ele>
        <time>2011-06-25T14:54:57Z</time>
      </trkpt>
      <trkpt lat="49.64036" lon="-1.8415">
        <ele>86</ele>
        <time>2011-06-25T14:54:58Z</time>
      </trkpt>
      <trkpt lat="49.64043" lon="-1.84142">
        <ele>85</ele>
        <time>2011-06-25T14:55:00Z</time>
      </trkpt>
      <trkpt lat="49.64059" lon="-1.84131">
        <ele>83</ele>
        <time>2011-06-25T14:55:04Z</time>
      </trkpt>
      <trkpt lat="49.64069" lon="-1.84135">
        <ele>82</ele>
        <time>2011-06-25T14:55:08Z</time>
      </trkpt>
      <trkpt lat="49.64079" lon="-1.84161">
        <ele>76</ele>
        <time>2011-06-25T14:55:14Z</time>
      </trkpt>
      <trkpt lat="49.64083" lon="-1.84191">
        <ele>74</ele>
        <time>2011-06-25T14:55:20Z</time>
      </trkpt>
      <trkpt lat="49.64075" lon="-1.84224">
        <ele>71</ele>
        <time>2011-06-25T14:55:26Z</time>
      </trkpt>
      <trkpt lat="49.64065" lon="-1.84265">
        <ele>63</ele>
        <time>2011-06-25T14:55:33Z</time>
      </trkpt>
      <trkpt lat="49.64059" lon="-1.84295">
        <ele>63</ele>
        <time>2011-06-25T14:55:39Z</time>
      </trkpt>
      <trkpt lat="49.64067" lon="-1.84313">
        <ele>59</ele>
        <time>2011-06-25T14:55:45Z</time>
      </trkpt>
      <trkpt lat="49.64082" lon="-1.84339">
        <ele>49</ele>
        <time>2011-06-25T14:55:51Z</time>
      </trkpt>
      <trkpt lat="49.64094" lon="-1.84353">
        <ele>49</ele>
        <time>2011-06-25T14:55:55Z</time>
      </trkpt>
      <trkpt lat="49.64096" lon="-1.84358">
        <ele>49</ele>
        <time>2011-06-25T14:55:56Z</time>
      </trkpt>
      <trkpt lat="49.64096" lon="-1.84374">
        <ele>49</ele>
        <time>2011-06-25T14:55:59Z</time>
      </trkpt>
      <trkpt lat="49.6409" lon="-1.84412">
        <ele>45</ele>
        <time>2011-06-25T14:56:05Z</time>
      </trkpt>
      <trkpt lat="49.6409" lon="-1.8443">
        <ele>47</ele>
        <time>2011-06-25T14:56:09Z</time>
      </trkpt>
      <trkpt lat="49.64091" lon="-1.84432">
        <ele>48</ele>
        <time>2011-06-25T14:56:25Z</time>
      </trkpt>
      <trkpt lat="49.64091" lon="-1.84439">
        <ele>49</ele>
        <time>2011-06-25T14:56:36Z</time>
      </trkpt>
      <trkpt lat="49.64092" lon="-1.84441">
        <ele>49</ele>
        <time>2011-06-25T14:56:41Z</time>
      </trkpt>
      <trkpt lat="49.64092" lon="-1.84445">
        <ele>49</ele>
        <time>2011-06-25T14:56:54Z</time>
      </trkpt>
      <trkpt lat="49.64092" lon="-1.84459">
        <ele>50</ele>
        <time>2011-06-25T14:56:59Z</time>
      </trkpt>
      <trkpt lat="49.64087" lon="-1.84485">
        <ele>47</ele>
        <time>2011-06-25T14:57:04Z</time>
      </trkpt>
      <trkpt lat="49.64074" lon="-1.84532">
        <ele>41</ele>
        <time>2011-06-25T14:57:12Z</time>
      </trkpt>
      <trkpt lat="49.64067" lon="-1.84554">
        <ele>41</ele>
        <time>2011-06-25T14:57:16Z</time>
      </trkpt>
      <trkpt lat="49.64057" lon="-1.84575">
        <ele>41</ele>
        <time>2011-06-25T14:57:20Z</time>
      </trkpt>
      <trkpt lat="49.64051" lon="-1.84586">
        <ele>38</ele>
        <time>2011-06-25T14:57:22Z</time>
      </trkpt>
      <trkpt lat="49.64041" lon="-1.84614">
        <ele>37</ele>
        <time>2011-06-25T14:57:27Z</time>
      </trkpt>
      <trkpt lat="49.64033" lon="-1.84637">
        <ele>36</ele>
        <time>2011-06-25T14:57:31Z</time>
      </trkpt>
      <trkpt lat="49.64012" lon="-1.84669">
        <ele>32</ele>
        <time>2011-06-25T14:57:36Z</time>
      </trkpt>
      <trkpt lat="49.64001" lon="-1.84707">
        <ele>31</ele>
        <time>2011-06-25T14:57:40Z</time>
      </trkpt>
      <trkpt lat="49.64" lon="-1.84727">
        <ele>28</ele>
        <time>2011-06-25T14:57:42Z</time>
      </trkpt>
      <trkpt lat="49.63995" lon="-1.84801">
        <ele>24</ele>
        <time>2011-06-25T14:57:50Z</time>
      </trkpt>
      <trkpt lat="49.63993" lon="-1.8481">
        <ele>24</ele>
        <time>2011-06-25T14:57:52Z</time>
      </trkpt>
      <trkpt lat="49.63982" lon="-1.84813">
        <ele>24</ele>
        <time>2011-06-25T14:57:56Z</time>
      </trkpt>
      <trkpt lat="49.63948" lon="-1.84804">
        <ele>24</ele>
        <time>2011-06-25T14:58:04Z</time>
      </trkpt>
      <trkpt lat="49.63896" lon="-1.8479">
        <ele>23</ele>
        <time>2011-06-25T14:58:15Z</time>
      </trkpt>
      <trkpt lat="49.63858" lon="-1.84787">
        <ele>22</ele>
        <time>2011-06-25T14:58:22Z</time>
      </trkpt>
      <trkpt lat="49.63806" lon="-1.84787">
        <ele>18</ele>
        <time>2011-06-25T14:58:30Z</time>
      </trkpt>
      <trkpt lat="49.63771" lon="-1.84785">
        <ele>18</ele>
        <time>2011-06-25T14:58:35Z</time>
      </trkpt>
      <trkpt lat="49.6374" lon="-1.84768">
        <ele>16</ele>
        <time>2011-06-25T14:58:40Z</time>
      </trkpt>
      <trkpt lat="49.63736" lon="-1.84761">
        <ele>16</ele>
        <time>2011-06-25T14:58:41Z</time>
      </trkpt>
      <trkpt lat="49.63696" lon="-1.84682">
        <ele>17</ele>
        <time>2011-06-25T14:58:52Z</time>
      </trkpt>
      <trkpt lat="49.6367" lon="-1.84638">
        <ele>19</ele>
        <time>2011-06-25T14:58:59Z</time>
      </trkpt>
      <trkpt lat="49.63653" lon="-1.84611">
        <ele>19</ele>
        <time>2011-06-25T14:59:05Z</time>
      </trkpt>
      <trkpt lat="49.63634" lon="-1.84585">
        <ele>19</ele>
        <time>2011-06-25T14:59:11Z</time>
      </trkpt>
      <trkpt lat="49.63625" lon="-1.84546">
        <ele>20</ele>
        <time>2011-06-25T14:59:17Z</time>
      </trkpt>
      <trkpt lat="49.63625" lon="-1.84539">
        <ele>20</ele>
        <time>2011-06-25T14:59:18Z</time>
      </trkpt>
      <trkpt lat="49.63627" lon="-1.84525">
        <ele>20</ele>
        <time>2011-06-25T14:59:20Z</time>
      </trkpt>
      <trkpt lat="49.63622" lon="-1.84499">
        <ele>22</ele>
        <time>2011-06-25T14:59:24Z</time>
      </trkpt>
      <trkpt lat="49.63595" lon="-1.84461">
        <ele>23</ele>
        <time>2011-06-25T14:59:32Z</time>
      </trkpt>
      <trkpt lat="49.63584" lon="-1.8445">
        <ele>23</ele>
        <time>2011-06-25T14:59:35Z</time>
      </trkpt>
      <trkpt lat="49.63553" lon="-1.84411">
        <ele>29</ele>
        <time>2011-06-25T14:59:45Z</time>
      </trkpt>
      <trkpt lat="49.6353" lon="-1.84377">
        <ele>30</ele>
        <time>2011-06-25T14:59:54Z</time>
      </trkpt>
      <trkpt lat="49.63516" lon="-1.84351">
        <ele>31</ele>
        <time>2011-06-25T15:00:00Z</time>
      </trkpt>
      <trkpt lat="49.63505" lon="-1.84322">
        <ele>34</ele>
        <time>2011-06-25T15:00:07Z</time>
      </trkpt>
      <trkpt lat="49.63502" lon="-1.84316">
        <ele>34</ele>
        <time>2011-06-25T15:00:11Z</time>
      </trkpt>
      <trkpt lat="49.63501" lon="-1.84316">
        <ele>34</ele>
        <time>2011-06-25T15:00:34Z</time>
      </trkpt>
      <trkpt lat="49.63501" lon="-1.84315">
        <ele>34</ele>
        <time>2011-06-25T15:01:49Z</time>
      </trkpt>
      <trkpt lat="49.63498" lon="-1.84301">
        <ele>34</ele>
        <time>2011-06-25T15:01:54Z</time>
      </trkpt>
      <trkpt lat="49.63486" lon="-1.84268">
        <ele>35</ele>
        <time>2011-06-25T15:02:02Z</time>
      </trkpt>
      <trkpt lat="49.63475" lon="-1.84242">
        <ele>39</ele>
        <time>2011-06-25T15:02:08Z</time>
      </trkpt>
      <trkpt lat="49.63467" lon="-1.8422">
        <ele>40</ele>
        <time>2011-06-25T15:02:13Z</time>
      </trkpt>
      <trkpt lat="49.63448" lon="-1.84179">
        <ele>41</ele>
        <time>2011-06-25T15:02:22Z</time>
      </trkpt>
      <trkpt lat="49.63432" lon="-1.84139">
        <ele>45</ele>
        <time>2011-06-25T15:02:31Z</time>
      </trkpt>
      <trkpt lat="49.63421" lon="-1.84119">
        <ele>45</ele>
        <time>2011-06-25T15:02:36Z</time>
      </trkpt>
      <trkpt lat="49.63408" lon="-1.84099">
        <ele>45</ele>
        <time>2011-06-25T15:02:42Z</time>
      </trkpt>
      <trkpt lat="49.63391" lon="-1.84079">
        <ele>48</ele>
        <time>2011-06-25T15:02:50Z</time>
      </trkpt>
      <trkpt lat="49.63382" lon="-1.8407">
        <ele>49</ele>
        <time>2011-06-25T15:02:54Z</time>
      </trkpt>
      <trkpt lat="49.63374" lon="-1.84073">
        <ele>50</ele>
        <time>2011-06-25T15:02:58Z</time>
      </trkpt>
      <trkpt lat="49.63374" lon="-1.8408">
        <ele>50</ele>
        <time>2011-06-25T15:03:00Z</time>
      </trkpt>
      <trkpt lat="49.63376" lon="-1.84112">
        <ele>49</ele>
        <time>2011-06-25T15:03:09Z</time>
      </trkpt>
      <trkpt lat="49.63378" lon="-1.84138">
        <ele>48</ele>
        <time>2011-06-25T15:03:17Z</time>
      </trkpt>
      <trkpt lat="49.63379" lon="-1.84166">
        <ele>48</ele>
        <time>2011-06-25T15:03:25Z</time>
      </trkpt>
      <trkpt lat="49.63378" lon="-1.84183">
        <ele>46</ele>
        <time>2011-06-25T15:03:32Z</time>
      </trkpt>
      <trkpt lat="49.63378" lon="-1.84185">
        <ele>46</ele>
        <time>2011-06-25T15:03:39Z</time>
      </trkpt>
      <trkpt lat="49.63378" lon="-1.84186">
        <ele>46</ele>
        <time>2011-06-25T15:04:26Z</time>
      </trkpt>
      <trkpt lat="49.63373" lon="-1.84176">
        <ele>47</ele>
        <time>2011-06-25T15:04:31Z</time>
      </trkpt>
      <trkpt lat="49.63366" lon="-1.84155">
        <ele>50</ele>
        <time>2011-06-25T15:04:38Z</time>
      </trkpt>
      <trkpt lat="49.63357" lon="-1.84134">
        <ele>50</ele>
        <time>2011-06-25T15:04:46Z</time>
      </trkpt>
      <trkpt lat="49.63345" lon="-1.84107">
        <ele>52</ele>
        <time>2011-06-25T15:04:56Z</time>
      </trkpt>
      <trkpt lat="49.63338" lon="-1.84092">
        <ele>54</ele>
        <time>2011-06-25T15:05:03Z</time>
      </trkpt>
      <trkpt lat="49.63331" lon="-1.84078">
        <ele>58</ele>
        <time>2011-06-25T15:05:10Z</time>
      </trkpt>
      <trkpt lat="49.63322" lon="-1.84061">
        <ele>62</ele>
        <time>2011-06-25T15:05:18Z</time>
      </trkpt>
      <trkpt lat="49.63313" lon="-1.84045">
        <ele>64</ele>
        <time>2011-06-25T15:05:25Z</time>
      </trkpt>
      <trkpt lat="49.63299" lon="-1.84018">
        <ele>65</ele>
        <time>2011-06-25T15:05:37Z</time>
      </trkpt>
      <trkpt lat="49.63284" lon="-1.83989">
        <ele>66</ele>
        <time>2011-06-25T15:05:49Z</time>
      </trkpt>
      <trkpt lat="49.63273" lon="-1.8397">
        <ele>67</ele>
        <time>2011-06-25T15:05:58Z</time>
      </trkpt>
      <trkpt lat="49.6326" lon="-1.8395">
        <ele>68</ele>
        <time>2011-06-25T15:06:09Z</time>
      </trkpt>
      <trkpt lat="49.63247" lon="-1.83932">
        <ele>78</ele>
        <time>2011-06-25T15:06:19Z</time>
      </trkpt>
      <trkpt lat="49.63232" lon="-1.83913">
        <ele>76</ele>
        <time>2011-06-25T15:06:30Z</time>
      </trkpt>
      <trkpt lat="49.63215" lon="-1.83892">
        <ele>80</ele>
        <time>2011-06-25T15:06:41Z</time>
      </trkpt>
      <trkpt lat="49.63199" lon="-1.83873">
        <ele>81</ele>
        <time>2011-06-25T15:06:51Z</time>
      </trkpt>
      <trkpt lat="49.63185" lon="-1.83851">
        <ele>83</ele>
        <time>2011-06-25T15:07:01Z</time>
      </trkpt>
      <trkpt lat="49.63174" lon="-1.8383">
        <ele>85</ele>
        <time>2011-06-25T15:07:10Z</time>
      </trkpt>
      <trkpt lat="49.63163" lon="-1.83812">
        <ele>94</ele>
        <time>2011-06-25T15:07:19Z</time>
      </trkpt>
      <trkpt lat="49.63152" lon="-1.83797">
        <ele>94</ele>
        <time>2011-06-25T15:07:27Z</time>
      </trkpt>
      <trkpt lat="49.63139" lon="-1.83777">
        <ele>94</ele>
        <time>2011-06-25T15:07:36Z</time>
      </trkpt>
      <trkpt lat="49.63127" lon="-1.83754">
        <ele>96</ele>
        <time>2011-06-25T15:07:45Z</time>
      </trkpt>
      <trkpt lat="49.63107" lon="-1.83727">
        <ele>94</ele>
        <time>2011-06-25T15:07:57Z</time>
      </trkpt>
      <trkpt lat="49.63095" lon="-1.83712">
        <ele>94</ele>
        <time>2011-06-25T15:08:04Z</time>
      </trkpt>
      <trkpt lat="49.6308" lon="-1.83691">
        <ele>107</ele>
        <time>2011-06-25T15:08:14Z</time>
      </trkpt>
      <trkpt lat="49.6307" lon="-1.8367">
        <ele>104</ele>
        <time>2011-06-25T15:08:22Z</time>
      </trkpt>
      <trkpt lat="49.6306" lon="-1.83649">
        <ele>103</ele>
        <time>2011-06-25T15:08:30Z</time>
      </trkpt>
      <trkpt lat="49.63048" lon="-1.83628">
        <ele>105</ele>
        <time>2011-06-25T15:08:39Z</time>
      </trkpt>
      <trkpt lat="49.63037" lon="-1.8361">
        <ele>106</ele>
        <time>2011-06-25T15:08:47Z</time>
      </trkpt>
      <trkpt lat="49.63028" lon="-1.83592">
        <ele>107</ele>
        <time>2011-06-25T15:08:55Z</time>
      </trkpt>
      <trkpt lat="49.63018" lon="-1.83572">
        <ele>105</ele>
        <time>2011-06-25T15:09:04Z</time>
      </trkpt>
      <trkpt lat="49.63009" lon="-1.83558">
        <ele>105</ele>
        <time>2011-06-25T15:09:12Z</time>
      </trkpt>
      <trkpt lat="49.63" lon="-1.83546">
        <ele>117</ele>
        <time>2011-06-25T15:09:19Z</time>
      </trkpt>
      <trkpt lat="49.62984" lon="-1.83525">
        <ele>116</ele>
        <time>2011-06-25T15:09:29Z</time>
      </trkpt>
      <trkpt lat="49.6297" lon="-1.83516">
        <ele>117</ele>
        <time>2011-06-25T15:09:36Z</time>
      </trkpt>
      <trkpt lat="49.62959" lon="-1.83512">
        <ele>118</ele>
        <time>2011-06-25T15:09:42Z</time>
      </trkpt>
      <trkpt lat="49.62942" lon="-1.83507">
        <ele>120</ele>
        <time>2011-06-25T15:09:51Z</time>
      </trkpt>
      <trkpt lat="49.62926" lon="-1.83505">
        <ele>123</ele>
        <time>2011-06-25T15:09:59Z</time>
      </trkpt>
      <trkpt lat="49.62906" lon="-1.83505">
        <ele>126</ele>
        <time>2011-06-25T15:10:08Z</time>
      </trkpt>
      <trkpt lat="49.62888" lon="-1.83508">
        <ele>127</ele>
        <time>2011-06-25T15:10:16Z</time>
      </trkpt>
      <trkpt lat="49.62866" lon="-1.83511">
        <ele>128</ele>
        <time>2011-06-25T15:10:25Z</time>
      </trkpt>
      <trkpt lat="49.62843" lon="-1.83514">
        <ele>128</ele>
        <time>2011-06-25T15:10:35Z</time>
      </trkpt>
      <trkpt lat="49.62837" lon="-1.83516">
        <ele>128</ele>
        <time>2011-06-25T15:10:40Z</time>
      </trkpt>
      <trkpt lat="49.62837" lon="-1.83517">
        <ele>128</ele>
        <time>2011-06-25T15:11:02Z</time>
      </trkpt>
      <trkpt lat="49.6284" lon="-1.83516">
        <ele>128</ele>
        <time>2011-06-25T15:13:28Z</time>
      </trkpt>
      <trkpt lat="49.62839" lon="-1.83516">
        <ele>128</ele>
        <time>2011-06-25T15:13:38Z</time>
      </trkpt>
      <trkpt lat="49.62837" lon="-1.83516">
        <ele>128</ele>
        <time>2011-06-25T15:14:00Z</time>
      </trkpt>
      <trkpt lat="49.62837" lon="-1.83516">
        <ele>128</ele>
        <time>2011-06-25T15:14:07Z</time>
      </trkpt>
      <trkpt lat="49.62837" lon="-1.83516">
        <ele>128</ele>
        <time>2011-06-25T15:14:15Z</time>
      </trkpt>
      <trkpt lat="49.62837" lon="-1.83517">
        <ele>128</ele>
        <time>2011-06-25T15:14:45Z</time>
      </trkpt>
      <trkpt lat="49.62836" lon="-1.83518">
        <ele>128</ele>
        <time>2011-06-25T15:15:21Z</time>
      </trkpt>
      <trkpt lat="49.62836" lon="-1.83518">
        <ele>128</ele>
        <time>2011-06-25T15:15:27Z</time>
      </trkpt>
      <trkpt lat="49.62837" lon="-1.83518">
        <ele>128</ele>
        <time>2011-06-25T15:15:35Z</time>
      </trkpt>
      <trkpt lat="49.62841" lon="-1.83518">
        <ele>128</ele>
        <time>2011-06-25T15:15:41Z</time>
      </trkpt>
      <trkpt lat="49.62846" lon="-1.83517">
        <ele>128</ele>
        <time>2011-06-25T15:15:45Z</time>
      </trkpt>
      <trkpt lat="49.6286" lon="-1.83515">
        <ele>128</ele>
        <time>2011-06-25T15:15:54Z</time>
      </trkpt>
      <trkpt lat="49.62872" lon="-1.83514">
        <ele>127</ele>
        <time>2011-06-25T15:16:03Z</time>
      </trkpt>
      <trkpt lat="49.62884" lon="-1.83512">
        <ele>127</ele>
        <time>2011-06-25T15:16:12Z</time>
      </trkpt>
      <trkpt lat="49.62896" lon="-1.83509">
        <ele>127</ele>
        <time>2011-06-25T15:16:21Z</time>
      </trkpt>
      <trkpt lat="49.62906" lon="-1.83507">
        <ele>126</ele>
        <time>2011-06-25T15:16:28Z</time>
      </trkpt>
      <trkpt lat="49.62921" lon="-1.83507">
        <ele>123</ele>
        <time>2011-06-25T15:16:38Z</time>
      </trkpt>
      <trkpt lat="49.62932" lon="-1.83508">
        <ele>122</ele>
        <time>2011-06-25T15:16:45Z</time>
      </trkpt>
      <trkpt lat="49.62942" lon="-1.83509">
        <ele>120</ele>
        <time>2011-06-25T15:16:52Z</time>
      </trkpt>
      <trkpt lat="49.62948" lon="-1.8351">
        <ele>120</ele>
        <time>2011-06-25T15:16:59Z</time>
      </trkpt>
      <trkpt lat="49.62948" lon="-1.8351">
        <ele>120</ele>
        <time>2011-06-25T15:17:01Z</time>
      </trkpt>
      <trkpt lat="49.62948" lon="-1.8351">
        <ele>120</ele>
        <time>2011-06-25T15:17:06Z</time>
      </trkpt>
      <trkpt lat="49.62952" lon="-1.83511">
        <ele>119</ele>
        <time>2011-06-25T15:17:14Z</time>
      </trkpt>
      <trkpt lat="49.62968" lon="-1.83516">
        <ele>117</ele>
        <time>2011-06-25T15:17:18Z</time>
      </trkpt>
      <trkpt lat="49.62976" lon="-1.8352">
        <ele>116</ele>
        <time>2011-06-25T15:17:21Z</time>
      </trkpt>
      <trkpt lat="49.62974" lon="-1.83519">
        <ele>116</ele>
        <time>2011-06-25T15:17:27Z</time>
      </trkpt>
      <trkpt lat="49.62972" lon="-1.83518">
        <ele>117</ele>
        <time>2011-06-25T15:17:34Z</time>
      </trkpt>
      <trkpt lat="49.62964" lon="-1.83513">
        <ele>117</ele>
        <time>2011-06-25T15:17:39Z</time>
      </trkpt>
      <trkpt lat="49.62941" lon="-1.83509">
        <ele>120</ele>
        <time>2011-06-25T15:17:50Z</time>
      </trkpt>
      <trkpt lat="49.62926" lon="-1.83507">
        <ele>123</ele>
        <time>2011-06-25T15:17:57Z</time>
      </trkpt>
      <trkpt lat="49.62903" lon="-1.83508">
        <ele>126</ele>
        <time>2011-06-25T15:18:07Z</time>
      </trkpt>
      <trkpt lat="49.62883" lon="-1.83511">
        <ele>127</ele>
        <time>2011-06-25T15:18:16Z</time>
      </trkpt>
      <trkpt lat="49.62854" lon="-1.83515">
        <ele>128</ele>
        <time>2011-06-25T15:18:28Z</time>
      </trkpt>
      <trkpt lat="49.62847" lon="-1.83515">
        <ele>128</ele>
        <time>2011-06-25T15:18:33Z</time>
      </trkpt>
      <trkpt lat="49.62846" lon="-1.83515">
        <ele>128</ele>
        <time>2011-06-25T15:18:39Z</time>
      </trkpt>
      <trkpt lat="49.62846" lon="-1.83516">
        <ele>128</ele>
        <time>2011-06-25T15:19:07Z</time>
      </trkpt>
      <trkpt lat="49.6286" lon="-1.83514">
        <ele>128</ele>
        <time>2011-06-25T15:19:14Z</time>
      </trkpt>
      <trkpt lat="49.6288" lon="-1.83512">
        <ele>127</ele>
        <time>2011-06-25T15:19:19Z</time>
      </trkpt>
      <trkpt lat="49.6289" lon="-1.8351">
        <ele>127</ele>
        <time>2011-06-25T15:19:21Z</time>
      </trkpt>
      <trkpt lat="49.62931" lon="-1.83512">
        <ele>122</ele>
        <time>2011-06-25T15:19:28Z</time>
      </trkpt>
      <trkpt lat="49.62956" lon="-1.83515">
        <ele>119</ele>
        <time>2011-06-25T15:19:32Z</time>
      </trkpt>
      <trkpt lat="49.62987" lon="-1.83533">
        <ele>116</ele>
        <time>2011-06-25T15:19:37Z</time>
      </trkpt>
      <trkpt lat="49.62992" lon="-1.83539">
        <ele>116</ele>
        <time>2011-06-25T15:19:38Z</time>
      </trkpt>
      <trkpt lat="49.63007" lon="-1.83559">
        <ele>105</ele>
        <time>2011-06-25T15:19:41Z</time>
      </trkpt>
      <trkpt lat="49.63025" lon="-1.83589">
        <ele>108</ele>
        <time>2011-06-25T15:19:45Z</time>
      </trkpt>
      <trkpt lat="49.63054" lon="-1.83642">
        <ele>104</ele>
        <time>2011-06-25T15:19:50Z</time>
      </trkpt>
      <trkpt lat="49.63077" lon="-1.83684">
        <ele>106</ele>
        <time>2011-06-25T15:19:54Z</time>
      </trkpt>
      <trkpt lat="49.63114" lon="-1.83738">
        <ele>94</ele>
        <time>2011-06-25T15:20:00Z</time>
      </trkpt>
      <trkpt lat="49.63141" lon="-1.83783">
        <ele>95</ele>
        <time>2011-06-25T15:20:05Z</time>
      </trkpt>
      <trkpt lat="49.63147" lon="-1.83793">
        <ele>95</ele>
        <time>2011-06-25T15:20:08Z</time>
      </trkpt>
      <trkpt lat="49.63155" lon="-1.83805">
        <ele>94</ele>
        <time>2011-06-25T15:20:14Z</time>
      </trkpt>
      <trkpt lat="49.63164" lon="-1.83816">
        <ele>93</ele>
        <time>2011-06-25T15:20:22Z</time>
      </trkpt>
      <trkpt lat="49.63171" lon="-1.83826">
        <ele>85</ele>
        <time>2011-06-25T15:20:29Z</time>
      </trkpt>
      <trkpt lat="49.63178" lon="-1.83837">
        <ele>86</ele>
        <time>2011-06-25T15:20:36Z</time>
      </trkpt>
      <trkpt lat="49.63184" lon="-1.83849">
        <ele>84</ele>
        <time>2011-06-25T15:20:43Z</time>
      </trkpt>
      <trkpt lat="49.63192" lon="-1.83863">
        <ele>82</ele>
        <time>2011-06-25T15:20:51Z</time>
      </trkpt>
      <trkpt lat="49.63198" lon="-1.83873">
        <ele>82</ele>
        <time>2011-06-25T15:20:57Z</time>
      </trkpt>
      <trkpt lat="49.63209" lon="-1.83887">
        <ele>81</ele>
        <time>2011-06-25T15:21:07Z</time>
      </trkpt>
      <trkpt lat="49.63214" lon="-1.83894">
        <ele>80</ele>
        <time>2011-06-25T15:21:12Z</time>
      </trkpt>
      <trkpt lat="49.63223" lon="-1.83904">
        <ele>78</ele>
        <time>2011-06-25T15:21:19Z</time>
      </trkpt>
      <trkpt lat="49.63231" lon="-1.83914">
        <ele>76</ele>
        <time>2011-06-25T15:21:26Z</time>
      </trkpt>
      <trkpt lat="49.63239" lon="-1.83924">
        <ele>78</ele>
        <time>2011-06-25T15:21:33Z</time>
      </trkpt>
      <trkpt lat="49.6325" lon="-1.83939">
        <ele>80</ele>
        <time>2011-06-25T15:21:42Z</time>
      </trkpt>
      <trkpt lat="49.6326" lon="-1.83954">
        <ele>68</ele>
        <time>2011-06-25T15:21:52Z</time>
      </trkpt>
      <trkpt lat="49.6327" lon="-1.83968">
        <ele>68</ele>
        <time>2011-06-25T15:22:01Z</time>
      </trkpt>
      <trkpt lat="49.63279" lon="-1.83983">
        <ele>67</ele>
        <time>2011-06-25T15:22:10Z</time>
      </trkpt>
      <trkpt lat="49.63286" lon="-1.83995">
        <ele>66</ele>
        <time>2011-06-25T15:22:17Z</time>
      </trkpt>
      <trkpt lat="49.63293" lon="-1.84008">
        <ele>66</ele>
        <time>2011-06-25T15:22:25Z</time>
      </trkpt>
      <trkpt lat="49.63299" lon="-1.84019">
        <ele>65</ele>
        <time>2011-06-25T15:22:31Z</time>
      </trkpt>
      <trkpt lat="49.63306" lon="-1.84033">
        <ele>65</ele>
        <time>2011-06-25T15:22:39Z</time>
      </trkpt>
      <trkpt lat="49.63314" lon="-1.84049">
        <ele>64</ele>
        <time>2011-06-25T15:22:48Z</time>
      </trkpt>
      <trkpt lat="49.63322" lon="-1.84064">
        <ele>62</ele>
        <time>2011-06-25T15:22:56Z</time>
      </trkpt>
      <trkpt lat="49.6333" lon="-1.84079">
        <ele>58</ele>
        <time>2011-06-25T15:23:04Z</time>
      </trkpt>
      <trkpt lat="49.63338" lon="-1.84092">
        <ele>54</ele>
        <time>2011-06-25T15:23:11Z</time>
      </trkpt>
      <trkpt lat="49.63345" lon="-1.84106">
        <ele>52</ele>
        <time>2011-06-25T15:23:18Z</time>
      </trkpt>
      <trkpt lat="49.63352" lon="-1.8412">
        <ele>51</ele>
        <time>2011-06-25T15:23:25Z</time>
      </trkpt>
      <trkpt lat="49.63357" lon="-1.84133">
        <ele>50</ele>
        <time>2011-06-25T15:23:32Z</time>
      </trkpt>
      <trkpt lat="49.63363" lon="-1.84147">
        <ele>50</ele>
        <time>2011-06-25T15:23:39Z</time>
      </trkpt>
      <trkpt lat="49.6337" lon="-1.84166">
        <ele>49</ele>
        <time>2011-06-25T15:23:48Z</time>
      </trkpt>
      <trkpt lat="49.63376" lon="-1.84183">
        <ele>46</ele>
        <time>2011-06-25T15:23:57Z</time>
      </trkpt>
      <trkpt lat="49.63379" lon="-1.8418">
        <ele>46</ele>
        <time>2011-06-25T15:24:02Z</time>
      </trkpt>
      <trkpt lat="49.63379" lon="-1.84173">
        <ele>46</ele>
        <time>2011-06-25T15:24:05Z</time>
      </trkpt>
      <trkpt lat="49.63377" lon="-1.84153">
        <ele>48</ele>
        <time>2011-06-25T15:24:13Z</time>
      </trkpt>
      <trkpt lat="49.63376" lon="-1.84137">
        <ele>49</ele>
        <time>2011-06-25T15:24:20Z</time>
      </trkpt>
      <trkpt lat="49.63375" lon="-1.84125">
        <ele>49</ele>
        <time>2011-06-25T15:24:25Z</time>
      </trkpt>
      <trkpt lat="49.63374" lon="-1.84105">
        <ele>49</ele>
        <time>2011-06-25T15:24:33Z</time>
      </trkpt>
      <trkpt lat="49.63373" lon="-1.84084">
        <ele>49</ele>
        <time>2011-06-25T15:24:42Z</time>
      </trkpt>
      <trkpt lat="49.63371" lon="-1.84068">
        <ele>50</ele>
        <time>2011-06-25T15:24:49Z</time>
      </trkpt>
      <trkpt lat="49.63368" lon="-1.84054">
        <ele>51</ele>
        <time>2011-06-25T15:24:55Z</time>
      </trkpt>
      <trkpt lat="49.63366" lon="-1.84049">
        <ele>51</ele>
        <time>2011-06-25T15:24:59Z</time>
      </trkpt>
      <trkpt lat="49.63361" lon="-1.8404">
        <ele>51</ele>
        <time>2011-06-25T15:25:03Z</time>
      </trkpt>
      <trkpt lat="49.63355" lon="-1.84026">
        <ele>51</ele>
        <time>2011-06-25T15:25:10Z</time>
      </trkpt>
      <trkpt lat="49.63352" lon="-1.8402">
        <ele>51</ele>
        <time>2011-06-25T15:25:13Z</time>
      </trkpt>
      <trkpt lat="49.63351" lon="-1.84011">
        <ele>51</ele>
        <time>2011-06-25T15:25:17Z</time>
      </trkpt>
      <trkpt lat="49.63343" lon="-1.83993">
        <ele>53</ele>
        <time>2011-06-25T15:25:27Z</time>
      </trkpt>
      <trkpt lat="49.63336" lon="-1.83975">
        <ele>54</ele>
        <time>2011-06-25T15:25:36Z</time>
      </trkpt>
      <trkpt lat="49.63329" lon="-1.83957">
        <ele>60</ele>
        <time>2011-06-25T15:25:45Z</time>
      </trkpt>
      <trkpt lat="49.63326" lon="-1.83946">
        <ele>60</ele>
        <time>2011-06-25T15:25:51Z</time>
      </trkpt>
      <trkpt lat="49.63321" lon="-1.83932">
        <ele>59</ele>
        <time>2011-06-25T15:25:58Z</time>
      </trkpt>
      <trkpt lat="49.63319" lon="-1.83926">
        <ele>59</ele>
        <time>2011-06-25T15:26:01Z</time>
      </trkpt>
      <trkpt lat="49.63322" lon="-1.83916">
        <ele>57</ele>
        <time>2011-06-25T15:26:07Z</time>
      </trkpt>
      <trkpt lat="49.63322" lon="-1.83916">
        <ele>58</ele>
        <time>2011-06-25T15:26:14Z</time>
      </trkpt>
      <trkpt lat="49.63324" lon="-1.83916">
        <ele>57</ele>
        <time>2011-06-25T15:26:16Z</time>
      </trkpt>
      <trkpt lat="49.63329" lon="-1.83912">
        <ele>56</ele>
        <time>2011-06-25T15:26:22Z</time>
      </trkpt>
      <trkpt lat="49.63334" lon="-1.83911">
        <ele>57</ele>
        <time>2011-06-25T15:26:29Z</time>
      </trkpt>
      <trkpt lat="49.63336" lon="-1.83915">
        <ele>56</ele>
        <time>2011-06-25T15:26:35Z</time>
      </trkpt>
      <trkpt lat="49.63344" lon="-1.83919">
        <ele>55</ele>
        <time>2011-06-25T15:26:42Z</time>
      </trkpt>
      <trkpt lat="49.63354" lon="-1.83927">
        <ele>56</ele>
        <time>2011-06-25T15:26:49Z</time>
      </trkpt>
      <trkpt lat="49.63362" lon="-1.83935">
        <ele>57</ele>
        <time>2011-06-25T15:26:56Z</time>
      </trkpt>
      <trkpt lat="49.63371" lon="-1.83947">
        <ele>57</ele>
        <time>2011-06-25T15:27:04Z</time>
      </trkpt>
      <trkpt lat="49.6338" lon="-1.83957">
        <ele>57</ele>
        <time>2011-06-25T15:27:11Z</time>
      </trkpt>
      <trkpt lat="49.63391" lon="-1.8397">
        <ele>57</ele>
        <time>2011-06-25T15:27:20Z</time>
      </trkpt>
      <trkpt lat="49.63399" lon="-1.8398">
        <ele>56</ele>
        <time>2011-06-25T15:27:27Z</time>
      </trkpt>
      <trkpt lat="49.63411" lon="-1.83994">
        <ele>55</ele>
        <time>2011-06-25T15:27:37Z</time>
      </trkpt>
      <trkpt lat="49.63422" lon="-1.84004">
        <ele>55</ele>
        <time>2011-06-25T15:27:45Z</time>
      </trkpt>
      <trkpt lat="49.63429" lon="-1.8401">
        <ele>56</ele>
        <time>2011-06-25T15:27:51Z</time>
      </trkpt>
      <trkpt lat="49.63438" lon="-1.84015">
        <ele>57</ele>
        <time>2011-06-25T15:27:58Z</time>
      </trkpt>
      <trkpt lat="49.63446" lon="-1.84022">
        <ele>57</ele>
        <time>2011-06-25T15:28:05Z</time>
      </trkpt>
      <trkpt lat="49.63455" lon="-1.84031">
        <ele>58</ele>
        <time>2011-06-25T15:28:12Z</time>
      </trkpt>
      <trkpt lat="49.63465" lon="-1.84043">
        <ele>58</ele>
        <time>2011-06-25T15:28:20Z</time>
      </trkpt>
      <trkpt lat="49.63475" lon="-1.84058">
        <ele>58</ele>
        <time>2011-06-25T15:28:29Z</time>
      </trkpt>
      <trkpt lat="49.63487" lon="-1.84071">
        <ele>58</ele>
        <time>2011-06-25T15:28:39Z</time>
      </trkpt>
      <trkpt lat="49.63495" lon="-1.84079">
        <ele>58</ele>
        <time>2011-06-25T15:28:46Z</time>
      </trkpt>
      <trkpt lat="49.63504" lon="-1.84085">
        <ele>58</ele>
        <time>2011-06-25T15:28:54Z</time>
      </trkpt>
      <trkpt lat="49.63505" lon="-1.84085">
        <ele>58</ele>
        <time>2011-06-25T15:28:55Z</time>
      </trkpt>
      <trkpt lat="49.63511" lon="-1.84088">
        <ele>59</ele>
        <time>2011-06-25T15:29:01Z</time>
      </trkpt>
      <trkpt lat="49.6352" lon="-1.84092">
        <ele>60</ele>
        <time>2011-06-25T15:29:08Z</time>
      </trkpt>
      <trkpt lat="49.63534" lon="-1.84097">
        <ele>61</ele>
        <time>2011-06-25T15:29:17Z</time>
      </trkpt>
      <trkpt lat="49.63549" lon="-1.84103">
        <ele>63</ele>
        <time>2011-06-25T15:29:27Z</time>
      </trkpt>
      <trkpt lat="49.63563" lon="-1.8411">
        <ele>64</ele>
        <time>2011-06-25T15:29:37Z</time>
      </trkpt>
      <trkpt lat="49.63573" lon="-1.84114">
        <ele>64</ele>
        <time>2011-06-25T15:29:44Z</time>
      </trkpt>
      <trkpt lat="49.63585" lon="-1.84119">
        <ele>66</ele>
        <time>2011-06-25T15:29:53Z</time>
      </trkpt>
      <trkpt lat="49.63598" lon="-1.84123">
        <ele>64</ele>
        <time>2011-06-25T15:30:03Z</time>
      </trkpt>
      <trkpt lat="49.63603" lon="-1.84123">
        <ele>64</ele>
        <time>2011-06-25T15:30:10Z</time>
      </trkpt>
      <trkpt lat="49.63608" lon="-1.84121">
        <ele>64</ele>
        <time>2011-06-25T15:30:20Z</time>
      </trkpt>
      <trkpt lat="49.63617" lon="-1.84104">
        <ele>65</ele>
        <time>2011-06-25T15:30:28Z</time>
      </trkpt>
      <trkpt lat="49.63621" lon="-1.84087">
        <ele>65</ele>
        <time>2011-06-25T15:30:35Z</time>
      </trkpt>
      <trkpt lat="49.63624" lon="-1.8407">
        <ele>72</ele>
        <time>2011-06-25T15:30:43Z</time>
      </trkpt>
      <trkpt lat="49.63625" lon="-1.84046">
        <ele>73</ele>
        <time>2011-06-25T15:30:54Z</time>
      </trkpt>
      <trkpt lat="49.63623" lon="-1.84026">
        <ele>74</ele>
        <time>2011-06-25T15:31:04Z</time>
      </trkpt>
      <trkpt lat="49.63621" lon="-1.84009">
        <ele>75</ele>
        <time>2011-06-25T15:31:12Z</time>
      </trkpt>
      <trkpt lat="49.63618" lon="-1.83987">
        <ele>80</ele>
        <time>2011-06-25T15:31:22Z</time>
      </trkpt>
      <trkpt lat="49.63614" lon="-1.83965">
        <ele>80</ele>
        <time>2011-06-25T15:31:31Z</time>
      </trkpt>
      <trkpt lat="49.63611" lon="-1.83946">
        <ele>81</ele>
        <time>2011-06-25T15:31:39Z</time>
      </trkpt>
      <trkpt lat="49.63606" lon="-1.83921">
        <ele>84</ele>
        <time>2011-06-25T15:31:50Z</time>
      </trkpt>
      <trkpt lat="49.63602" lon="-1.83892">
        <ele>85</ele>
        <time>2011-06-25T15:32:03Z</time>
      </trkpt>
      <trkpt lat="49.636" lon="-1.83868">
        <ele>86</ele>
        <time>2011-06-25T15:32:13Z</time>
      </trkpt>
      <trkpt lat="49.63598" lon="-1.83843">
        <ele>89</ele>
        <time>2011-06-25T15:32:23Z</time>
      </trkpt>
      <trkpt lat="49.63596" lon="-1.83824">
        <ele>89</ele>
        <time>2011-06-25T15:32:31Z</time>
      </trkpt>
      <trkpt lat="49.63594" lon="-1.83799">
        <ele>87</ele>
        <time>2011-06-25T15:32:41Z</time>
      </trkpt>
      <trkpt lat="49.63592" lon="-1.83778">
        <ele>87</ele>
        <time>2011-06-25T15:32:50Z</time>
      </trkpt>
      <trkpt lat="49.63586" lon="-1.83765">
        <ele>89</ele>
        <time>2011-06-25T15:32:57Z</time>
      </trkpt>
      <trkpt lat="49.63574" lon="-1.83746">
        <ele>95</ele>
        <time>2011-06-25T15:33:08Z</time>
      </trkpt>
      <trkpt lat="49.63568" lon="-1.83731">
        <ele>97</ele>
        <time>2011-06-25T15:33:16Z</time>
      </trkpt>
      <trkpt lat="49.63565" lon="-1.83717">
        <ele>98</ele>
        <time>2011-06-25T15:33:23Z</time>
      </trkpt>
      <trkpt lat="49.63564" lon="-1.83699">
        <ele>98</ele>
        <time>2011-06-25T15:33:31Z</time>
      </trkpt>
      <trkpt lat="49.63563" lon="-1.83684">
        <ele>97</ele>
        <time>2011-06-25T15:33:38Z</time>
      </trkpt>
      <trkpt lat="49.63562" lon="-1.83662">
        <ele>97</ele>
        <time>2011-06-25T15:33:46Z</time>
      </trkpt>
      <trkpt lat="49.63561" lon="-1.83646">
        <ele>98</ele>
        <time>2011-06-25T15:33:53Z</time>
      </trkpt>
      <trkpt lat="49.63562" lon="-1.83632">
        <ele>99</ele>
        <time>2011-06-25T15:33:59Z</time>
      </trkpt>
      <trkpt lat="49.63562" lon="-1.83612">
        <ele>99</ele>
        <time>2011-06-25T15:34:07Z</time>
      </trkpt>
      <trkpt lat="49.63563" lon="-1.83588">
        <ele>98</ele>
        <time>2011-06-25T15:34:17Z</time>
      </trkpt>
      <trkpt lat="49.63563" lon="-1.83563">
        <ele>100</ele>
        <time>2011-06-25T15:34:28Z</time>
      </trkpt>
      <trkpt lat="49.63564" lon="-1.83546">
        <ele>100</ele>
        <time>2011-06-25T15:34:36Z</time>
      </trkpt>
      <trkpt lat="49.63566" lon="-1.83529">
        <ele>100</ele>
        <time>2011-06-25T15:34:44Z</time>
      </trkpt>
      <trkpt lat="49.63568" lon="-1.83512">
        <ele>99</ele>
        <time>2011-06-25T15:34:52Z</time>
      </trkpt>
      <trkpt lat="49.63567" lon="-1.83497">
        <ele>100</ele>
        <time>2011-06-25T15:34:59Z</time>
      </trkpt>
      <trkpt lat="49.63564" lon="-1.83483">
        <ele>101</ele>
        <time>2011-06-25T15:35:07Z</time>
      </trkpt>
      <trkpt lat="49.63562" lon="-1.83465">
        <ele>102</ele>
        <time>2011-06-25T15:35:15Z</time>
      </trkpt>
      <trkpt lat="49.6356" lon="-1.83446">
        <ele>102</ele>
        <time>2011-06-25T15:35:24Z</time>
      </trkpt>
      <trkpt lat="49.63557" lon="-1.83427">
        <ele>102</ele>
        <time>2011-06-25T15:35:33Z</time>
      </trkpt>
      <trkpt lat="49.63555" lon="-1.83403">
        <ele>103</ele>
        <time>2011-06-25T15:35:43Z</time>
      </trkpt>
      <trkpt lat="49.63552" lon="-1.83386">
        <ele>104</ele>
        <time>2011-06-25T15:35:51Z</time>
      </trkpt>
      <trkpt lat="49.6355" lon="-1.83368">
        <ele>104</ele>
        <time>2011-06-25T15:35:59Z</time>
      </trkpt>
      <trkpt lat="49.6355" lon="-1.83354">
        <ele>104</ele>
        <time>2011-06-25T15:36:07Z</time>
      </trkpt>
      <trkpt lat="49.6355" lon="-1.83354">
        <ele>104</ele>
        <time>2011-06-25T15:36:27Z</time>
      </trkpt>
      <trkpt lat="49.63549" lon="-1.83348">
        <ele>104</ele>
        <time>2011-06-25T15:36:34Z</time>
      </trkpt>
      <trkpt lat="49.63549" lon="-1.83346">
        <ele>104</ele>
        <time>2011-06-25T15:36:36Z</time>
      </trkpt>
      <trkpt lat="49.63547" lon="-1.83337">
        <ele>104</ele>
        <time>2011-06-25T15:36:42Z</time>
      </trkpt>
      <trkpt lat="49.63553" lon="-1.83328">
        <ele>102</ele>
        <time>2011-06-25T15:36:48Z</time>
      </trkpt>
      <trkpt lat="49.63559" lon="-1.83324">
        <ele>101</ele>
        <time>2011-06-25T15:36:55Z</time>
      </trkpt>
      <trkpt lat="49.6356" lon="-1.83325">
        <ele>101</ele>
        <time>2011-06-25T15:37:20Z</time>
      </trkpt>
      <trkpt lat="49.63572" lon="-1.83319">
        <ele>100</ele>
        <time>2011-06-25T15:37:24Z</time>
      </trkpt>
      <trkpt lat="49.63586" lon="-1.83314">
        <ele>94</ele>
        <time>2011-06-25T15:37:28Z</time>
      </trkpt>
      <trkpt lat="49.6359" lon="-1.83313">
        <ele>94</ele>
        <time>2011-06-25T15:37:33Z</time>
      </trkpt>
      <trkpt lat="49.63596" lon="-1.83312">
        <ele>93</ele>
        <time>2011-06-25T15:38:26Z</time>
      </trkpt>
      <trkpt lat="49.63608" lon="-1.83304">
        <ele>92</ele>
        <time>2011-06-25T15:38:30Z</time>
      </trkpt>
      <trkpt lat="49.6361" lon="-1.83292">
        <ele>92</ele>
        <time>2011-06-25T15:38:34Z</time>
      </trkpt>
      <trkpt lat="49.6361" lon="-1.83289">
        <ele>91</ele>
        <time>2011-06-25T15:38:35Z</time>
      </trkpt>
      <trkpt lat="49.6361" lon="-1.83285">
        <ele>91</ele>
        <time>2011-06-25T15:38:41Z</time>
      </trkpt>
      <trkpt lat="49.6361" lon="-1.83283">
        <ele>91</ele>
        <time>2011-06-25T15:38:54Z</time>
      </trkpt>
      <trkpt lat="49.63613" lon="-1.83276">
        <ele>91</ele>
        <time>2011-06-25T15:38:58Z</time>
      </trkpt>
      <trkpt lat="49.63616" lon="-1.83271">
        <ele>91</ele>
        <time>2011-06-25T15:39:03Z</time>
      </trkpt>
      <trkpt lat="49.6362" lon="-1.83263">
        <ele>90</ele>
        <time>2011-06-25T15:39:14Z</time>
      </trkpt>
      <trkpt lat="49.63632" lon="-1.83244">
        <ele>85</ele>
        <time>2011-06-25T15:39:19Z</time>
      </trkpt>
      <trkpt lat="49.63639" lon="-1.83233">
        <ele>84</ele>
        <time>2011-06-25T15:39:22Z</time>
      </trkpt>
      <trkpt lat="49.63649" lon="-1.83235">
        <ele>84</ele>
        <time>2011-06-25T15:39:27Z</time>
      </trkpt>
      <trkpt lat="49.63652" lon="-1.8324">
        <ele>84</ele>
        <time>2011-06-25T15:39:42Z</time>
      </trkpt>
      <trkpt lat="49.63661" lon="-1.83253">
        <ele>86</ele>
        <time>2011-06-25T15:39:46Z</time>
      </trkpt>
      <trkpt lat="49.63663" lon="-1.83253">
        <ele>85</ele>
        <time>2011-06-25T15:39:49Z</time>
      </trkpt>
      <trkpt lat="49.63665" lon="-1.83249">
        <ele>84</ele>
        <time>2011-06-25T15:39:54Z</time>
      </trkpt>
      <trkpt lat="49.63675" lon="-1.83236">
        <ele>77</ele>
        <time>2011-06-25T15:40:00Z</time>
      </trkpt>
      <trkpt lat="49.63681" lon="-1.83232">
        <ele>75</ele>
        <time>2011-06-25T15:40:02Z</time>
      </trkpt>
      <trkpt lat="49.63704" lon="-1.8323">
        <ele>71</ele>
        <time>2011-06-25T15:40:07Z</time>
      </trkpt>
      <trkpt lat="49.63719" lon="-1.83228">
        <ele>69</ele>
        <time>2011-06-25T15:40:10Z</time>
      </trkpt>
      <trkpt lat="49.63734" lon="-1.83222">
        <ele>67</ele>
        <time>2011-06-25T15:40:14Z</time>
      </trkpt>
      <trkpt lat="49.6376" lon="-1.83204">
        <ele>55</ele>
        <time>2011-06-25T15:40:21Z</time>
      </trkpt>
      <trkpt lat="49.63774" lon="-1.83197">
        <ele>54</ele>
        <time>2011-06-25T15:40:24Z</time>
      </trkpt>
      <trkpt lat="49.63782" lon="-1.83182">
        <ele>53</ele>
        <time>2011-06-25T15:40:28Z</time>
      </trkpt>
      <trkpt lat="49.63782" lon="-1.83181">
        <ele>53</ele>
        <time>2011-06-25T15:40:30Z</time>
      </trkpt>
      <trkpt lat="49.63779" lon="-1.83173">
        <ele>53</ele>
        <time>2011-06-25T15:40:34Z</time>
      </trkpt>
      <trkpt lat="49.63769" lon="-1.83158">
        <ele>54</ele>
        <time>2011-06-25T15:40:41Z</time>
      </trkpt>
      <trkpt lat="49.63755" lon="-1.83142">
        <ele>54</ele>
        <time>2011-06-25T15:40:49Z</time>
      </trkpt>
      <trkpt lat="49.63742" lon="-1.83124">
        <ele>60</ele>
        <time>2011-06-25T15:40:57Z</time>
      </trkpt>
      <trkpt lat="49.63726" lon="-1.83108">
        <ele>60</ele>
        <time>2011-06-25T15:41:06Z</time>
      </trkpt>
      <trkpt lat="49.6372" lon="-1.83102">
        <ele>60</ele>
        <time>2011-06-25T15:41:12Z</time>
      </trkpt>
      <trkpt lat="49.6371" lon="-1.83091">
        <ele>61</ele>
        <time>2011-06-25T15:41:18Z</time>
      </trkpt>
      <trkpt lat="49.63694" lon="-1.8307">
        <ele>60</ele>
        <time>2011-06-25T15:41:26Z</time>
      </trkpt>
      <trkpt lat="49.63678" lon="-1.83051">
        <ele>60</ele>
        <time>2011-06-25T15:41:33Z</time>
      </trkpt>
      <trkpt lat="49.63666" lon="-1.83035">
        <ele>68</ele>
        <time>2011-06-25T15:41:40Z</time>
      </trkpt>
      <trkpt lat="49.63664" lon="-1.83033">
        <ele>68</ele>
        <time>2011-06-25T15:41:45Z</time>
      </trkpt>
      <trkpt lat="49.63662" lon="-1.83035">
        <ele>68</ele>
        <time>2011-06-25T15:41:51Z</time>
      </trkpt>
      <trkpt lat="49.63661" lon="-1.83037">
        <ele>68</ele>
        <time>2011-06-25T15:41:58Z</time>
      </trkpt>
      <trkpt lat="49.63659" lon="-1.83036">
        <ele>68</ele>
        <time>2011-06-25T15:42:34Z</time>
      </trkpt>
      <trkpt lat="49.63659" lon="-1.83036">
        <ele>68</ele>
        <time>2011-06-25T15:42:53Z</time>
      </trkpt>
      <trkpt lat="49.63654" lon="-1.83039">
        <ele>69</ele>
        <time>2011-06-25T15:43:00Z</time>
      </trkpt>
      <trkpt lat="49.63653" lon="-1.8304">
        <ele>69</ele>
        <time>2011-06-25T15:43:07Z</time>
      </trkpt>
      <trkpt lat="49.63652" lon="-1.83042">
        <ele>69</ele>
        <time>2011-06-25T15:43:10Z</time>
      </trkpt>
      <trkpt lat="49.6365" lon="-1.83044">
        <ele>69</ele>
        <time>2011-06-25T15:43:16Z</time>
      </trkpt>
      <trkpt lat="49.63645" lon="-1.8305">
        <ele>70</ele>
        <time>2011-06-25T15:43:20Z</time>
      </trkpt>
      <trkpt lat="49.6364" lon="-1.83054">
        <ele>70</ele>
        <time>2011-06-25T15:43:23Z</time>
      </trkpt>
      <trkpt lat="49.63636" lon="-1.83063">
        <ele>70</ele>
        <time>2011-06-25T15:43:27Z</time>
      </trkpt>
      <trkpt lat="49.63631" lon="-1.83076">
        <ele>71</ele>
        <time>2011-06-25T15:43:34Z</time>
      </trkpt>
      <trkpt lat="49.63628" lon="-1.83078">
        <ele>71</ele>
        <time>2011-06-25T15:43:40Z</time>
      </trkpt>
      <trkpt lat="49.63626" lon="-1.83082">
        <ele>72</ele>
        <time>2011-06-25T15:43:46Z</time>
      </trkpt>
      <trkpt lat="49.63625" lon="-1.83083">
        <ele>75</ele>
        <time>2011-06-25T15:43:53Z</time>
      </trkpt>
      <trkpt lat="49.63622" lon="-1.83087">
        <ele>75</ele>
        <time>2011-06-25T15:44:00Z</time>
      </trkpt>
      <trkpt lat="49.6362" lon="-1.83095">
        <ele>76</ele>
        <time>2011-06-25T15:44:08Z</time>
      </trkpt>
      <trkpt lat="49.63616" lon="-1.83099">
        <ele>76</ele>
        <time>2011-06-25T15:44:15Z</time>
      </trkpt>
      <trkpt lat="49.63612" lon="-1.83103">
        <ele>77</ele>
        <time>2011-06-25T15:44:23Z</time>
      </trkpt>
      <trkpt lat="49.63611" lon="-1.83105">
        <ele>77</ele>
        <time>2011-06-25T15:44:30Z</time>
      </trkpt>
      <trkpt lat="49.6361" lon="-1.83107">
        <ele>77</ele>
        <time>2011-06-25T15:44:37Z</time>
      </trkpt>
      <trkpt lat="49.63608" lon="-1.83108">
        <ele>77</ele>
        <time>2011-06-25T15:44:44Z</time>
      </trkpt>
      <trkpt lat="49.63599" lon="-1.83118">
        <ele>78</ele>
        <time>2011-06-25T15:44:53Z</time>
      </trkpt>
      <trkpt lat="49.63586" lon="-1.83131">
        <ele>79</ele>
        <time>2011-06-25T15:45:02Z</time>
      </trkpt>
      <trkpt lat="49.63581" lon="-1.83136">
        <ele>90</ele>
        <time>2011-06-25T15:45:05Z</time>
      </trkpt>
      <trkpt lat="49.63575" lon="-1.83144">
        <ele>90</ele>
        <time>2011-06-25T15:45:10Z</time>
      </trkpt>
      <trkpt lat="49.63569" lon="-1.83149">
        <ele>90</ele>
        <time>2011-06-25T15:45:17Z</time>
      </trkpt>
      <trkpt lat="49.63568" lon="-1.83152">
        <ele>90</ele>
        <time>2011-06-25T15:45:22Z</time>
      </trkpt>
      <trkpt lat="49.63568" lon="-1.83156">
        <ele>90</ele>
        <time>2011-06-25T15:45:27Z</time>
      </trkpt>
      <trkpt lat="49.63567" lon="-1.83158">
        <ele>89</ele>
        <time>2011-06-25T15:45:30Z</time>
      </trkpt>
      <trkpt lat="49.63562" lon="-1.83169">
        <ele>92</ele>
        <time>2011-06-25T15:45:37Z</time>
      </trkpt>
      <trkpt lat="49.6356" lon="-1.83173">
        <ele>93</ele>
        <time>2011-06-25T15:45:43Z</time>
      </trkpt>
      <trkpt lat="49.63559" lon="-1.83174">
        <ele>93</ele>
        <time>2011-06-25T15:45:50Z</time>
      </trkpt>
      <trkpt lat="49.63557" lon="-1.83178">
        <ele>93</ele>
        <time>2011-06-25T15:45:58Z</time>
      </trkpt>
      <trkpt lat="49.63555" lon="-1.83181">
        <ele>94</ele>
        <time>2011-06-25T15:46:05Z</time>
      </trkpt>
      <trkpt lat="49.63553" lon="-1.83184">
        <ele>94</ele>
        <time>2011-06-25T15:46:11Z</time>
      </trkpt>
      <trkpt lat="49.6355" lon="-1.8319">
        <ele>95</ele>
        <time>2011-06-25T15:46:16Z</time>
      </trkpt>
      <trkpt lat="49.63546" lon="-1.83194">
        <ele>96</ele>
        <time>2011-06-25T15:46:22Z</time>
      </trkpt>
      <trkpt lat="49.63543" lon="-1.83199">
        <ele>96</ele>
        <time>2011-06-25T15:46:28Z</time>
      </trkpt>
      <trkpt lat="49.63541" lon="-1.83201">
        <ele>97</ele>
        <time>2011-06-25T15:46:32Z</time>
      </trkpt>
      <trkpt lat="49.63539" lon="-1.83203">
        <ele>97</ele>
        <time>2011-06-25T15:46:38Z</time>
      </trkpt>
      <trkpt lat="49.63531" lon="-1.83209">
        <ele>98</ele>
        <time>2011-06-25T15:46:45Z</time>
      </trkpt>
      <trkpt lat="49.63524" lon="-1.83214">
        <ele>99</ele>
        <time>2011-06-25T15:46:52Z</time>
      </trkpt>
      <trkpt lat="49.63523" lon="-1.83213">
        <ele>99</ele>
        <time>2011-06-25T15:47:00Z</time>
      </trkpt>
      <trkpt lat="49.63522" lon="-1.83214">
        <ele>99</ele>
        <time>2011-06-25T15:47:07Z</time>
      </trkpt>
      <trkpt lat="49.6352" lon="-1.83215">
        <ele>99</ele>
        <time>2011-06-25T15:47:13Z</time>
      </trkpt>
      <trkpt lat="49.63519" lon="-1.83215">
        <ele>99</ele>
        <time>2011-06-25T15:47:19Z</time>
      </trkpt>
      <trkpt lat="49.63517" lon="-1.83214">
        <ele>99</ele>
        <time>2011-06-25T15:47:27Z</time>
      </trkpt>
      <trkpt lat="49.63516" lon="-1.83213">
        <ele>99</ele>
        <time>2011-06-25T15:47:32Z</time>
      </trkpt>
      <trkpt lat="49.63515" lon="-1.83212">
        <ele>99</ele>
        <time>2011-06-25T15:47:36Z</time>
      </trkpt>
      <trkpt lat="49.63509" lon="-1.83207">
        <ele>99</ele>
        <time>2011-06-25T15:47:46Z</time>
      </trkpt>
      <trkpt lat="49.63508" lon="-1.83206">
        <ele>99</ele>
        <time>2011-06-25T15:47:52Z</time>
      </trkpt>
      <trkpt lat="49.63504" lon="-1.83202">
        <ele>99</ele>
        <time>2011-06-25T15:47:57Z</time>
      </trkpt>
      <trkpt lat="49.635" lon="-1.83197">
        <ele>108</ele>
        <time>2011-06-25T15:48:01Z</time>
      </trkpt>
      <trkpt lat="49.63494" lon="-1.83191">
        <ele>108</ele>
        <time>2011-06-25T15:48:06Z</time>
      </trkpt>
      <trkpt lat="49.63479" lon="-1.8318">
        <ele>108</ele>
        <time>2011-06-25T15:48:16Z</time>
      </trkpt>
      <trkpt lat="49.63475" lon="-1.83179">
        <ele>109</ele>
        <time>2011-06-25T15:48:19Z</time>
      </trkpt>
      <trkpt lat="49.63472" lon="-1.83189">
        <ele>109</ele>
        <time>2011-06-25T15:48:24Z</time>
      </trkpt>
      <trkpt lat="49.63472" lon="-1.83192">
        <ele>109</ele>
        <time>2011-06-25T15:48:25Z</time>
      </trkpt>
      <trkpt lat="49.63476" lon="-1.83216">
        <ele>110</ele>
        <time>2011-06-25T15:48:34Z</time>
      </trkpt>
      <trkpt lat="49.63482" lon="-1.83234">
        <ele>109</ele>
        <time>2011-06-25T15:48:40Z</time>
      </trkpt>
      <trkpt lat="49.63488" lon="-1.83251">
        <ele>109</ele>
        <time>2011-06-25T15:48:47Z</time>
      </trkpt>
      <trkpt lat="49.63498" lon="-1.83263">
        <ele>109</ele>
        <time>2011-06-25T15:48:52Z</time>
      </trkpt>
      <trkpt lat="49.63508" lon="-1.83275">
        <ele>104</ele>
        <time>2011-06-25T15:48:57Z</time>
      </trkpt>
      <trkpt lat="49.63527" lon="-1.83296">
        <ele>103</ele>
        <time>2011-06-25T15:49:04Z</time>
      </trkpt>
      <trkpt lat="49.63543" lon="-1.83325">
        <ele>103</ele>
        <time>2011-06-25T15:49:11Z</time>
      </trkpt>
      <trkpt lat="49.6355" lon="-1.83351">
        <ele>104</ele>
        <time>2011-06-25T15:49:17Z</time>
      </trkpt>
      <trkpt lat="49.63551" lon="-1.83352">
        <ele>104</ele>
        <time>2011-06-25T15:49:21Z</time>
      </trkpt>
      <trkpt lat="49.6355" lon="-1.83351">
        <ele>104</ele>
        <time>2011-06-25T15:49:36Z</time>
      </trkpt>
      <trkpt lat="49.6355" lon="-1.83351">
        <ele>104</ele>
        <time>2011-06-25T15:49:37Z</time>
      </trkpt>
      <trkpt lat="49.63553" lon="-1.83356">
        <ele>104</ele>
        <time>2011-06-25T15:49:41Z</time>
      </trkpt>
      <trkpt lat="49.63551" lon="-1.83355">
        <ele>104</ele>
        <time>2011-06-25T15:49:45Z</time>
      </trkpt>
      <trkpt lat="49.63548" lon="-1.83338">
        <ele>104</ele>
        <time>2011-06-25T15:49:51Z</time>
      </trkpt>
      <trkpt lat="49.63537" lon="-1.8331">
        <ele>103</ele>
        <time>2011-06-25T15:49:57Z</time>
      </trkpt>
      <trkpt lat="49.63515" lon="-1.83282">
        <ele>104</ele>
        <time>2011-06-25T15:50:04Z</time>
      </trkpt>
      <trkpt lat="49.63496" lon="-1.83261">
        <ele>109</ele>
        <time>2011-06-25T15:50:10Z</time>
      </trkpt>
      <trkpt lat="49.63484" lon="-1.8324">
        <ele>109</ele>
        <time>2011-06-25T15:50:15Z</time>
      </trkpt>
      <trkpt lat="49.63476" lon="-1.83217">
        <ele>110</ele>
        <time>2011-06-25T15:50:20Z</time>
      </trkpt>
      <trkpt lat="49.63473" lon="-1.83202">
        <ele>110</ele>
        <time>2011-06-25T15:50:25Z</time>
      </trkpt>
      <trkpt lat="49.63471" lon="-1.83183">
        <ele>109</ele>
        <time>2011-06-25T15:50:30Z</time>
      </trkpt>
      <trkpt lat="49.63476" lon="-1.83178">
        <ele>108</ele>
        <time>2011-06-25T15:50:34Z</time>
      </trkpt>
      <trkpt lat="49.63478" lon="-1.83179">
        <ele>108</ele>
        <time>2011-06-25T15:50:35Z</time>
      </trkpt>
      <trkpt lat="49.63492" lon="-1.8319">
        <ele>108</ele>
        <time>2011-06-25T15:50:41Z</time>
      </trkpt>
      <trkpt lat="49.63501" lon="-1.83199">
        <ele>100</ele>
        <time>2011-06-25T15:50:45Z</time>
      </trkpt>
      <trkpt lat="49.63517" lon="-1.83213">
        <ele>99</ele>
        <time>2011-06-25T15:50:50Z</time>
      </trkpt>
      <trkpt lat="49.63531" lon="-1.83208">
        <ele>98</ele>
        <time>2011-06-25T15:50:55Z</time>
      </trkpt>
      <trkpt lat="49.63541" lon="-1.832">
        <ele>97</ele>
        <time>2011-06-25T15:50:58Z</time>
      </trkpt>
      <trkpt lat="49.63551" lon="-1.83185">
        <ele>95</ele>
        <time>2011-06-25T15:51:03Z</time>
      </trkpt>
      <trkpt lat="49.6356" lon="-1.8317">
        <ele>92</ele>
        <time>2011-06-25T15:51:07Z</time>
      </trkpt>
      <trkpt lat="49.63565" lon="-1.8316">
        <ele>90</ele>
        <time>2011-06-25T15:51:10Z</time>
      </trkpt>
      <trkpt lat="49.6357" lon="-1.83146">
        <ele>90</ele>
        <time>2011-06-25T15:51:14Z</time>
      </trkpt>
      <trkpt lat="49.63578" lon="-1.83139">
        <ele>90</ele>
        <time>2011-06-25T15:51:17Z</time>
      </trkpt>
      <trkpt lat="49.6359" lon="-1.83124">
        <ele>78</ele>
        <time>2011-06-25T15:51:21Z</time>
      </trkpt>
      <trkpt lat="49.63604" lon="-1.83111">
        <ele>77</ele>
        <time>2011-06-25T15:51:24Z</time>
      </trkpt>
      <trkpt lat="49.63613" lon="-1.83102">
        <ele>77</ele>
        <time>2011-06-25T15:51:27Z</time>
      </trkpt>
      <trkpt lat="49.63615" lon="-1.83098">
        <ele>76</ele>
        <time>2011-06-25T15:51:30Z</time>
      </trkpt>
      <trkpt lat="49.63621" lon="-1.83092">
        <ele>75</ele>
        <time>2011-06-25T15:51:35Z</time>
      </trkpt>
      <trkpt lat="49.63625" lon="-1.83081">
        <ele>72</ele>
        <time>2011-06-25T15:51:39Z</time>
      </trkpt>
      <trkpt lat="49.63629" lon="-1.83076">
        <ele>71</ele>
        <time>2011-06-25T15:51:44Z</time>
      </trkpt>
      <trkpt lat="49.63632" lon="-1.83068">
        <ele>71</ele>
        <time>2011-06-25T15:51:49Z</time>
      </trkpt>
      <trkpt lat="49.63644" lon="-1.8305">
        <ele>70</ele>
        <time>2011-06-25T15:51:54Z</time>
      </trkpt>
      <trkpt lat="49.63657" lon="-1.83036">
        <ele>68</ele>
        <time>2011-06-25T15:51:59Z</time>
      </trkpt>
      <trkpt lat="49.63662" lon="-1.8303">
        <ele>68</ele>
        <time>2011-06-25T15:52:04Z</time>
      </trkpt>
      <trkpt lat="49.63664" lon="-1.83032">
        <ele>68</ele>
        <time>2011-06-25T15:52:09Z</time>
      </trkpt>
      <trkpt lat="49.63666" lon="-1.83034">
        <ele>68</ele>
        <time>2011-06-25T15:52:36Z</time>
      </trkpt>
      <trkpt lat="49.63669" lon="-1.83037">
        <ele>60</ele>
        <time>2011-06-25T15:52:39Z</time>
      </trkpt>
      <trkpt lat="49.63678" lon="-1.83049">
        <ele>60</ele>
        <time>2011-06-25T15:52:43Z</time>
      </trkpt>
      <trkpt lat="49.63685" lon="-1.83058">
        <ele>60</ele>
        <time>2011-06-25T15:52:45Z</time>
      </trkpt>
      <trkpt lat="49.63706" lon="-1.83084">
        <ele>61</ele>
        <time>2011-06-25T15:52:51Z</time>
      </trkpt>
      <trkpt lat="49.63709" lon="-1.83089">
        <ele>61</ele>
        <time>2011-06-25T15:52:52Z</time>
      </trkpt>
      <trkpt lat="49.63733" lon="-1.83114">
        <ele>60</ele>
        <time>2011-06-25T15:52:58Z</time>
      </trkpt>
      <trkpt lat="49.63756" lon="-1.83143">
        <ele>54</ele>
        <time>2011-06-25T15:53:03Z</time>
      </trkpt>
      <trkpt lat="49.63783" lon="-1.83181">
        <ele>53</ele>
        <time>2011-06-25T15:53:08Z</time>
      </trkpt>
      <trkpt lat="49.63795" lon="-1.83204">
        <ele>52</ele>
        <time>2011-06-25T15:53:13Z</time>
      </trkpt>
      <trkpt lat="49.63811" lon="-1.83235">
        <ele>50</ele>
        <time>2011-06-25T15:53:19Z</time>
      </trkpt>
      <trkpt lat="49.63829" lon="-1.83279">
        <ele>50</ele>
        <time>2011-06-25T15:53:24Z</time>
      </trkpt>
      <trkpt lat="49.63832" lon="-1.83311">
        <ele>49</ele>
        <time>2011-06-25T15:53:28Z</time>
      </trkpt>
      <trkpt lat="49.63826" lon="-1.83346">
        <ele>47</ele>
        <time>2011-06-25T15:53:34Z</time>
      </trkpt>
      <trkpt lat="49.6382" lon="-1.83386">
        <ele>49</ele>
        <time>2011-06-25T15:53:39Z</time>
      </trkpt>
      <trkpt lat="49.63808" lon="-1.83437">
        <ele>47</ele>
        <time>2011-06-25T15:53:45Z</time>
      </trkpt>
      <trkpt lat="49.63804" lon="-1.83485">
        <ele>47</ele>
        <time>2011-06-25T15:53:51Z</time>
      </trkpt>
      <trkpt lat="49.63799" lon="-1.83536">
        <ele>45</ele>
        <time>2011-06-25T15:53:58Z</time>
      </trkpt>
      <trkpt lat="49.63791" lon="-1.83597">
        <ele>43</ele>
        <time>2011-06-25T15:54:05Z</time>
      </trkpt>
      <trkpt lat="49.63786" lon="-1.8367">
        <ele>40</ele>
        <time>2011-06-25T15:54:13Z</time>
      </trkpt>
      <trkpt lat="49.63781" lon="-1.83726">
        <ele>40</ele>
        <time>2011-06-25T15:54:20Z</time>
      </trkpt>
      <trkpt lat="49.63776" lon="-1.83782">
        <ele>39</ele>
        <time>2011-06-25T15:54:27Z</time>
      </trkpt>
      <trkpt lat="49.63767" lon="-1.83866">
        <ele>39</ele>
        <time>2011-06-25T15:54:36Z</time>
      </trkpt>
      <trkpt lat="49.63759" lon="-1.83946">
        <ele>38</ele>
        <time>2011-06-25T15:54:45Z</time>
      </trkpt>
      <trkpt lat="49.63753" lon="-1.84014">
        <ele>36</ele>
        <time>2011-06-25T15:54:53Z</time>
      </trkpt>
      <trkpt lat="49.63744" lon="-1.84083">
        <ele>35</ele>
        <time>2011-06-25T15:55:01Z</time>
      </trkpt>
      <trkpt lat="49.63735" lon="-1.84148">
        <ele>37</ele>
        <time>2011-06-25T15:55:09Z</time>
      </trkpt>
      <trkpt lat="49.63728" lon="-1.84208">
        <ele>35</ele>
        <time>2011-06-25T15:55:16Z</time>
      </trkpt>
      <trkpt lat="49.63723" lon="-1.84275">
        <ele>31</ele>
        <time>2011-06-25T15:55:23Z</time>
      </trkpt>
      <trkpt lat="49.6372" lon="-1.84296">
        <ele>31</ele>
        <time>2011-06-25T15:55:26Z</time>
      </trkpt>
      <trkpt lat="49.6372" lon="-1.84303">
        <ele>31</ele>
        <time>2011-06-25T15:55:30Z</time>
      </trkpt>
      <trkpt lat="49.63719" lon="-1.84303">
        <ele>31</ele>
        <time>2011-06-25T15:55:34Z</time>
      </trkpt>
      <trkpt lat="49.63719" lon="-1.84305">
        <ele>31</ele>
        <time>2011-06-25T15:55:39Z</time>
      </trkpt>
      <trkpt lat="49.63718" lon="-1.84313">
        <ele>31</ele>
        <time>2011-06-25T15:55:45Z</time>
      </trkpt>
      <trkpt lat="49.63717" lon="-1.84312">
        <ele>31</ele>
        <time>2011-06-25T15:56:16Z</time>
      </trkpt>
      <trkpt lat="49.63714" lon="-1.84323">
        <ele>30</ele>
        <time>2011-06-25T15:56:21Z</time>
      </trkpt>
      <trkpt lat="49.63713" lon="-1.84348">
        <ele>27</ele>
        <time>2011-06-25T15:56:26Z</time>
      </trkpt>
      <trkpt lat="49.63707" lon="-1.84392">
        <ele>27</ele>
        <time>2011-06-25T15:56:32Z</time>
      </trkpt>
      <trkpt lat="49.63699" lon="-1.84439">
        <ele>24</ele>
        <time>2011-06-25T15:56:39Z</time>
      </trkpt>
      <trkpt lat="49.63691" lon="-1.84488">
        <ele>23</ele>
        <time>2011-06-25T15:56:47Z</time>
      </trkpt>
      <trkpt lat="49.63686" lon="-1.84529">
        <ele>22</ele>
        <time>2011-06-25T15:56:54Z</time>
      </trkpt>
      <trkpt lat="49.63682" lon="-1.8454">
        <ele>21</ele>
        <time>2011-06-25T15:56:57Z</time>
      </trkpt>
      <trkpt lat="49.63667" lon="-1.84539">
        <ele>21</ele>
        <time>2011-06-25T15:57:03Z</time>
      </trkpt>
      <trkpt lat="49.63646" lon="-1.84532">
        <ele>20</ele>
        <time>2011-06-25T15:57:10Z</time>
      </trkpt>
      <trkpt lat="49.6363" lon="-1.84516">
        <ele>20</ele>
        <time>2011-06-25T15:57:16Z</time>
      </trkpt>
      <trkpt lat="49.63607" lon="-1.84479">
        <ele>22</ele>
        <time>2011-06-25T15:57:26Z</time>
      </trkpt>
      <trkpt lat="49.63587" lon="-1.84458">
        <ele>23</ele>
        <time>2011-06-25T15:57:34Z</time>
      </trkpt>
      <trkpt lat="49.63567" lon="-1.84434">
        <ele>25</ele>
        <time>2011-06-25T15:57:42Z</time>
      </trkpt>
      <trkpt lat="49.63541" lon="-1.84401">
        <ele>29</ele>
        <time>2011-06-25T15:57:52Z</time>
      </trkpt>
      <trkpt lat="49.63521" lon="-1.84367">
        <ele>30</ele>
        <time>2011-06-25T15:58:01Z</time>
      </trkpt>
      <trkpt lat="49.63507" lon="-1.84331">
        <ele>33</ele>
        <time>2011-06-25T15:58:09Z</time>
      </trkpt>
      <trkpt lat="49.63494" lon="-1.84297">
        <ele>34</ele>
        <time>2011-06-25T15:58:16Z</time>
      </trkpt>
      <trkpt lat="49.63478" lon="-1.8426">
        <ele>35</ele>
        <time>2011-06-25T15:58:23Z</time>
      </trkpt>
      <trkpt lat="49.63462" lon="-1.84221">
        <ele>39</ele>
        <time>2011-06-25T15:58:30Z</time>
      </trkpt>
      <trkpt lat="49.63439" lon="-1.8417">
        <ele>41</ele>
        <time>2011-06-25T15:58:39Z</time>
      </trkpt>
      <trkpt lat="49.63419" lon="-1.84127">
        <ele>45</ele>
        <time>2011-06-25T15:58:47Z</time>
      </trkpt>
      <trkpt lat="49.634" lon="-1.84099">
        <ele>46</ele>
        <time>2011-06-25T15:58:54Z</time>
      </trkpt>
      <trkpt lat="49.63383" lon="-1.84077">
        <ele>49</ele>
        <time>2011-06-25T15:59:02Z</time>
      </trkpt>
      <trkpt lat="49.63379" lon="-1.84074">
        <ele>50</ele>
        <time>2011-06-25T15:59:04Z</time>
      </trkpt>
      <trkpt lat="49.63372" lon="-1.84082">
        <ele>50</ele>
        <time>2011-06-25T15:59:09Z</time>
      </trkpt>
      <trkpt lat="49.63372" lon="-1.84086">
        <ele>49</ele>
        <time>2011-06-25T15:59:10Z</time>
      </trkpt>
      <trkpt lat="49.63375" lon="-1.84126">
        <ele>49</ele>
        <time>2011-06-25T15:59:21Z</time>
      </trkpt>
      <trkpt lat="49.63377" lon="-1.84155">
        <ele>48</ele>
        <time>2011-06-25T15:59:29Z</time>
      </trkpt>
      <trkpt lat="49.63378" lon="-1.8418">
        <ele>46</ele>
        <time>2011-06-25T15:59:36Z</time>
      </trkpt>
      <trkpt lat="49.63372" lon="-1.8418">
        <ele>47</ele>
        <time>2011-06-25T15:59:40Z</time>
      </trkpt>
      <trkpt lat="49.6337" lon="-1.84174">
        <ele>47</ele>
        <time>2011-06-25T15:59:42Z</time>
      </trkpt>
      <trkpt lat="49.63359" lon="-1.84145">
        <ele>50</ele>
        <time>2011-06-25T15:59:51Z</time>
      </trkpt>
      <trkpt lat="49.63347" lon="-1.84117">
        <ele>51</ele>
        <time>2011-06-25T16:00:00Z</time>
      </trkpt>
      <trkpt lat="49.63332" lon="-1.84087">
        <ele>58</ele>
        <time>2011-06-25T16:00:11Z</time>
      </trkpt>
      <trkpt lat="49.63319" lon="-1.84064">
        <ele>63</ele>
        <time>2011-06-25T16:00:19Z</time>
      </trkpt>
      <trkpt lat="49.63306" lon="-1.84042">
        <ele>65</ele>
        <time>2011-06-25T16:00:28Z</time>
      </trkpt>
      <trkpt lat="49.63292" lon="-1.84014">
        <ele>67</ele>
        <time>2011-06-25T16:00:38Z</time>
      </trkpt>
      <trkpt lat="49.63281" lon="-1.83992">
        <ele>67</ele>
        <time>2011-06-25T16:00:46Z</time>
      </trkpt>
      <trkpt lat="49.63265" lon="-1.83965">
        <ele>68</ele>
        <time>2011-06-25T16:00:57Z</time>
      </trkpt>
      <trkpt lat="49.63254" lon="-1.83949">
        <ele>68</ele>
        <time>2011-06-25T16:01:04Z</time>
      </trkpt>
      <trkpt lat="49.63245" lon="-1.83937">
        <ele>80</ele>
        <time>2011-06-25T16:01:11Z</time>
      </trkpt>
      <trkpt lat="49.63235" lon="-1.83925">
        <ele>79</ele>
        <time>2011-06-25T16:01:20Z</time>
      </trkpt>
      <trkpt lat="49.63228" lon="-1.83916">
        <ele>77</ele>
        <time>2011-06-25T16:01:28Z</time>
      </trkpt>
      <trkpt lat="49.6322" lon="-1.83906">
        <ele>79</ele>
        <time>2011-06-25T16:01:36Z</time>
      </trkpt>
      <trkpt lat="49.63212" lon="-1.83897">
        <ele>80</ele>
        <time>2011-06-25T16:01:43Z</time>
      </trkpt>
      <trkpt lat="49.63204" lon="-1.83886">
        <ele>81</ele>
        <time>2011-06-25T16:01:51Z</time>
      </trkpt>
      <trkpt lat="49.63193" lon="-1.83872">
        <ele>82</ele>
        <time>2011-06-25T16:02:01Z</time>
      </trkpt>
      <trkpt lat="49.63188" lon="-1.83865">
        <ele>83</ele>
        <time>2011-06-25T16:02:06Z</time>
      </trkpt>
      <trkpt lat="49.6318" lon="-1.83849">
        <ele>84</ele>
        <time>2011-06-25T16:02:15Z</time>
      </trkpt>
      <trkpt lat="49.63173" lon="-1.83835">
        <ele>88</ele>
        <time>2011-06-25T16:02:23Z</time>
      </trkpt>
      <trkpt lat="49.63164" lon="-1.8382">
        <ele>93</ele>
        <time>2011-06-25T16:02:33Z</time>
      </trkpt>
      <trkpt lat="49.63155" lon="-1.83808">
        <ele>94</ele>
        <time>2011-06-25T16:02:42Z</time>
      </trkpt>
      <trkpt lat="49.63146" lon="-1.83795">
        <ele>95</ele>
        <time>2011-06-25T16:02:51Z</time>
      </trkpt>
      <trkpt lat="49.63137" lon="-1.83779">
        <ele>95</ele>
        <time>2011-06-25T16:03:00Z</time>
      </trkpt>
      <trkpt lat="49.63128" lon="-1.83763">
        <ele>96</ele>
        <time>2011-06-25T16:03:09Z</time>
      </trkpt>
      <trkpt lat="49.6312" lon="-1.83749">
        <ele>92</ele>
        <time>2011-06-25T16:03:17Z</time>
      </trkpt>
      <trkpt lat="49.6311" lon="-1.83736">
        <ele>94</ele>
        <time>2011-06-25T16:03:25Z</time>
      </trkpt>
      <trkpt lat="49.63098" lon="-1.8372">
        <ele>95</ele>
        <time>2011-06-25T16:03:35Z</time>
      </trkpt>
      <trkpt lat="49.63086" lon="-1.83704">
        <ele>94</ele>
        <time>2011-06-25T16:03:46Z</time>
      </trkpt>
      <trkpt lat="49.63076" lon="-1.83688">
        <ele>107</ele>
        <time>2011-06-25T16:03:55Z</time>
      </trkpt>
      <trkpt lat="49.63068" lon="-1.83668">
        <ele>105</ele>
        <time>2011-06-25T16:04:04Z</time>
      </trkpt>
      <trkpt lat="49.63058" lon="-1.8365">
        <ele>104</ele>
        <time>2011-06-25T16:04:13Z</time>
      </trkpt>
      <trkpt lat="49.63049" lon="-1.83637">
        <ele>105</ele>
        <time>2011-06-25T16:04:21Z</time>
      </trkpt>
      <trkpt lat="49.63043" lon="-1.83626">
        <ele>105</ele>
        <time>2011-06-25T16:04:28Z</time>
      </trkpt>
      <trkpt lat="49.63037" lon="-1.83616">
        <ele>106</ele>
        <time>2011-06-25T16:04:35Z</time>
      </trkpt>
      <trkpt lat="49.63032" lon="-1.83606">
        <ele>107</ele>
        <time>2011-06-25T16:04:41Z</time>
      </trkpt>
      <trkpt lat="49.63026" lon="-1.83596">
        <ele>108</ele>
        <time>2011-06-25T16:04:47Z</time>
      </trkpt>
      <trkpt lat="49.63019" lon="-1.83579">
        <ele>106</ele>
        <time>2011-06-25T16:04:56Z</time>
      </trkpt>
      <trkpt lat="49.63012" lon="-1.83567">
        <ele>106</ele>
        <time>2011-06-25T16:05:04Z</time>
      </trkpt>
      <trkpt lat="49.63004" lon="-1.83556">
        <ele>105</ele>
        <time>2011-06-25T16:05:12Z</time>
      </trkpt>
      <trkpt lat="49.62995" lon="-1.83545">
        <ele>117</ele>
        <time>2011-06-25T16:05:20Z</time>
      </trkpt>
      <trkpt lat="49.62984" lon="-1.8353">
        <ele>116</ele>
        <time>2011-06-25T16:05:30Z</time>
      </trkpt>
      <trkpt lat="49.6297" lon="-1.83519">
        <ele>117</ele>
        <time>2011-06-25T16:05:40Z</time>
      </trkpt>
      <trkpt lat="49.62957" lon="-1.83514">
        <ele>118</ele>
        <time>2011-06-25T16:05:49Z</time>
      </trkpt>
      <trkpt lat="49.62943" lon="-1.83513">
        <ele>120</ele>
        <time>2011-06-25T16:05:58Z</time>
      </trkpt>
      <trkpt lat="49.62925" lon="-1.83511">
        <ele>122</ele>
        <time>2011-06-25T16:06:10Z</time>
      </trkpt>
      <trkpt lat="49.62912" lon="-1.83509">
        <ele>126</ele>
        <time>2011-06-25T16:06:18Z</time>
      </trkpt>
      <trkpt lat="49.62895" lon="-1.83511">
        <ele>127</ele>
        <time>2011-06-25T16:06:28Z</time>
      </trkpt>
      <trkpt lat="49.62878" lon="-1.83513">
        <ele>127</ele>
        <time>2011-06-25T16:06:38Z</time>
      </trkpt>
      <trkpt lat="49.62863" lon="-1.83515">
        <ele>128</ele>
        <time>2011-06-25T16:06:48Z</time>
      </trkpt>
      <trkpt lat="49.62849" lon="-1.83517">
        <ele>128</ele>
        <time>2011-06-25T16:06:57Z</time>
      </trkpt>
      <trkpt lat="49.62845" lon="-1.83517">
        <ele>128</ele>
        <time>2011-06-25T16:06:59Z</time>
      </trkpt>
    </trkseg>
  </trk>
</gpx>